<?xml version="1.0" encoding="UTF-8" standalone="no" ?>
<gpx xmlns="http://www.topografix.com/GPX/1/1" xmlns:xsi="http://www.w3.org/2001/XMLSchema-instance" xsi:schemaLocation="http://www.topografix.com/GPX/1/1 http://www.topografix.com/GPX/1/1/gpx.xsd" version="1.1" creator="VisuGPX - https://www.visugpx.com">
  <metadata>
    <name>Ventabren-Roquefavour</name>
    <desc><![CDATA[Petite boucle de 9.5 km, dénivelé 170 m au départ du parking du centre sportif de Ventabren]]></desc>
  </metadata>
  <trk>
    <name><![CDATA[Ventabren-Roquefavour_25 janv. 2017]]></name>
    <trkseg>
      <trkpt lat="43.53448" lon="5.29887">
        <ele>291</ele>
        <time>2017-01-25T09:18:10Z</time>
      </trkpt>
      <trkpt lat="43.53448" lon="5.29899">
        <ele>300</ele>
        <time>2017-01-25T09:22:46Z</time>
      </trkpt>
      <trkpt lat="43.53454" lon="5.29907">
        <ele>298</ele>
        <time>2017-01-25T09:25:09Z</time>
      </trkpt>
      <trkpt lat="43.53459" lon="5.29917">
        <ele>299</ele>
        <time>2017-01-25T09:25:17Z</time>
      </trkpt>
      <trkpt lat="43.53459" lon="5.29929">
        <ele>298</ele>
        <time>2017-01-25T09:25:28Z</time>
      </trkpt>
      <trkpt lat="43.53455" lon="5.29939">
        <ele>298</ele>
        <time>2017-01-25T09:25:37Z</time>
      </trkpt>
      <trkpt lat="43.5345" lon="5.29949">
        <ele>298</ele>
        <time>2017-01-25T09:25:46Z</time>
      </trkpt>
      <trkpt lat="43.53444" lon="5.29957">
        <ele>298</ele>
        <time>2017-01-25T09:25:54Z</time>
      </trkpt>
      <trkpt lat="43.53441" lon="5.29968">
        <ele>298</ele>
        <time>2017-01-25T09:26:02Z</time>
      </trkpt>
      <trkpt lat="43.53442" lon="5.29979">
        <ele>298</ele>
        <time>2017-01-25T09:26:10Z</time>
      </trkpt>
      <trkpt lat="43.53444" lon="5.29991">
        <ele>298</ele>
        <time>2017-01-25T09:26:18Z</time>
      </trkpt>
      <trkpt lat="43.53444" lon="5.30002">
        <ele>298</ele>
        <time>2017-01-25T09:26:25Z</time>
      </trkpt>
      <trkpt lat="43.53446" lon="5.30014">
        <ele>298</ele>
        <time>2017-01-25T09:26:32Z</time>
      </trkpt>
      <trkpt lat="43.53448" lon="5.30025">
        <ele>298</ele>
        <time>2017-01-25T09:26:39Z</time>
      </trkpt>
      <trkpt lat="43.5345" lon="5.30036">
        <ele>297</ele>
        <time>2017-01-25T09:26:47Z</time>
      </trkpt>
      <trkpt lat="43.53448" lon="5.30047">
        <ele>297</ele>
        <time>2017-01-25T09:26:54Z</time>
      </trkpt>
      <trkpt lat="43.53446" lon="5.30058">
        <ele>298</ele>
        <time>2017-01-25T09:27:01Z</time>
      </trkpt>
      <trkpt lat="43.53444" lon="5.30069">
        <ele>298</ele>
        <time>2017-01-25T09:27:08Z</time>
      </trkpt>
      <trkpt lat="43.53443" lon="5.3008">
        <ele>298</ele>
        <time>2017-01-25T09:27:15Z</time>
      </trkpt>
      <trkpt lat="43.5344" lon="5.30091">
        <ele>296</ele>
        <time>2017-01-25T09:27:24Z</time>
      </trkpt>
      <trkpt lat="43.53436" lon="5.30102">
        <ele>296</ele>
        <time>2017-01-25T09:27:31Z</time>
      </trkpt>
      <trkpt lat="43.53433" lon="5.30112">
        <ele>297</ele>
        <time>2017-01-25T09:27:38Z</time>
      </trkpt>
      <trkpt lat="43.53431" lon="5.30124">
        <ele>296</ele>
        <time>2017-01-25T09:27:46Z</time>
      </trkpt>
      <trkpt lat="43.5343" lon="5.30134">
        <ele>296</ele>
        <time>2017-01-25T09:27:52Z</time>
      </trkpt>
      <trkpt lat="43.53425" lon="5.30144">
        <ele>295</ele>
        <time>2017-01-25T09:28:02Z</time>
      </trkpt>
      <trkpt lat="43.53431" lon="5.30152">
        <ele>292</ele>
        <time>2017-01-25T09:29:04Z</time>
      </trkpt>
      <trkpt lat="43.53433" lon="5.30163">
        <ele>293</ele>
        <time>2017-01-25T09:29:14Z</time>
      </trkpt>
      <trkpt lat="43.53435" lon="5.30175">
        <ele>294</ele>
        <time>2017-01-25T09:29:26Z</time>
      </trkpt>
      <trkpt lat="43.53433" lon="5.30186">
        <ele>292</ele>
        <time>2017-01-25T09:29:36Z</time>
      </trkpt>
      <trkpt lat="43.53431" lon="5.30198">
        <ele>294</ele>
        <time>2017-01-25T09:29:45Z</time>
      </trkpt>
      <trkpt lat="43.53428" lon="5.30209">
        <ele>294</ele>
        <time>2017-01-25T09:29:53Z</time>
      </trkpt>
      <trkpt lat="43.53423" lon="5.30217">
        <ele>294</ele>
        <time>2017-01-25T09:30:00Z</time>
      </trkpt>
      <trkpt lat="43.53417" lon="5.30225">
        <ele>293</ele>
        <time>2017-01-25T09:30:05Z</time>
      </trkpt>
      <trkpt lat="43.53411" lon="5.30234">
        <ele>293</ele>
        <time>2017-01-25T09:30:13Z</time>
      </trkpt>
      <trkpt lat="43.53405" lon="5.30241">
        <ele>293</ele>
        <time>2017-01-25T09:30:20Z</time>
      </trkpt>
      <trkpt lat="43.53398" lon="5.30248">
        <ele>294</ele>
        <time>2017-01-25T09:30:28Z</time>
      </trkpt>
      <trkpt lat="43.53391" lon="5.30254">
        <ele>293</ele>
        <time>2017-01-25T09:30:36Z</time>
      </trkpt>
      <trkpt lat="43.53383" lon="5.30258">
        <ele>294</ele>
        <time>2017-01-25T09:30:43Z</time>
      </trkpt>
      <trkpt lat="43.53376" lon="5.30261">
        <ele>294</ele>
        <time>2017-01-25T09:30:50Z</time>
      </trkpt>
      <trkpt lat="43.53368" lon="5.30267">
        <ele>295</ele>
        <time>2017-01-25T09:30:58Z</time>
      </trkpt>
      <trkpt lat="43.53361" lon="5.30272">
        <ele>294</ele>
        <time>2017-01-25T09:31:06Z</time>
      </trkpt>
      <trkpt lat="43.53353" lon="5.30273">
        <ele>293</ele>
        <time>2017-01-25T09:31:13Z</time>
      </trkpt>
      <trkpt lat="43.53345" lon="5.30276">
        <ele>292</ele>
        <time>2017-01-25T09:31:22Z</time>
      </trkpt>
      <trkpt lat="43.53341" lon="5.30286">
        <ele>292</ele>
        <time>2017-01-25T09:31:30Z</time>
      </trkpt>
      <trkpt lat="43.5334" lon="5.30297">
        <ele>292</ele>
        <time>2017-01-25T09:31:38Z</time>
      </trkpt>
      <trkpt lat="43.53338" lon="5.30308">
        <ele>292</ele>
        <time>2017-01-25T09:31:45Z</time>
      </trkpt>
      <trkpt lat="43.53337" lon="5.3032">
        <ele>291</ele>
        <time>2017-01-25T09:31:53Z</time>
      </trkpt>
      <trkpt lat="43.53336" lon="5.30331">
        <ele>291</ele>
        <time>2017-01-25T09:32:01Z</time>
      </trkpt>
      <trkpt lat="43.53335" lon="5.30343">
        <ele>292</ele>
        <time>2017-01-25T09:32:09Z</time>
      </trkpt>
      <trkpt lat="43.53334" lon="5.30354">
        <ele>293</ele>
        <time>2017-01-25T09:32:17Z</time>
      </trkpt>
      <trkpt lat="43.53333" lon="5.30366">
        <ele>292</ele>
        <time>2017-01-25T09:32:25Z</time>
      </trkpt>
      <trkpt lat="43.53332" lon="5.30378">
        <ele>292</ele>
        <time>2017-01-25T09:32:32Z</time>
      </trkpt>
      <trkpt lat="43.5333" lon="5.30389">
        <ele>292</ele>
        <time>2017-01-25T09:32:39Z</time>
      </trkpt>
      <trkpt lat="43.53329" lon="5.304">
        <ele>292</ele>
        <time>2017-01-25T09:32:46Z</time>
      </trkpt>
      <trkpt lat="43.53327" lon="5.30411">
        <ele>292</ele>
        <time>2017-01-25T09:32:53Z</time>
      </trkpt>
      <trkpt lat="43.53326" lon="5.30422">
        <ele>292</ele>
        <time>2017-01-25T09:33:00Z</time>
      </trkpt>
      <trkpt lat="43.53324" lon="5.30434">
        <ele>291</ele>
        <time>2017-01-25T09:33:07Z</time>
      </trkpt>
      <trkpt lat="43.53321" lon="5.30445">
        <ele>290</ele>
        <time>2017-01-25T09:33:14Z</time>
      </trkpt>
      <trkpt lat="43.53318" lon="5.30455">
        <ele>290</ele>
        <time>2017-01-25T09:33:23Z</time>
      </trkpt>
      <trkpt lat="43.53311" lon="5.30462">
        <ele>289</ele>
        <time>2017-01-25T09:33:31Z</time>
      </trkpt>
      <trkpt lat="43.53304" lon="5.3047">
        <ele>287</ele>
        <time>2017-01-25T09:33:39Z</time>
      </trkpt>
      <trkpt lat="43.53297" lon="5.30475">
        <ele>286</ele>
        <time>2017-01-25T09:33:46Z</time>
      </trkpt>
      <trkpt lat="43.53289" lon="5.30478">
        <ele>284</ele>
        <time>2017-01-25T09:33:53Z</time>
      </trkpt>
      <trkpt lat="43.53281" lon="5.30482">
        <ele>284</ele>
        <time>2017-01-25T09:34:01Z</time>
      </trkpt>
      <trkpt lat="43.53273" lon="5.30486">
        <ele>283</ele>
        <time>2017-01-25T09:34:09Z</time>
      </trkpt>
      <trkpt lat="43.53265" lon="5.30492">
        <ele>283</ele>
        <time>2017-01-25T09:34:17Z</time>
      </trkpt>
      <trkpt lat="43.5326" lon="5.30503">
        <ele>281</ele>
        <time>2017-01-25T09:34:24Z</time>
      </trkpt>
      <trkpt lat="43.53261" lon="5.30515">
        <ele>280</ele>
        <time>2017-01-25T09:34:33Z</time>
      </trkpt>
      <trkpt lat="43.53264" lon="5.30525">
        <ele>278</ele>
        <time>2017-01-25T09:34:42Z</time>
      </trkpt>
      <trkpt lat="43.5327" lon="5.30532">
        <ele>277</ele>
        <time>2017-01-25T09:34:49Z</time>
      </trkpt>
      <trkpt lat="43.53278" lon="5.30538">
        <ele>278</ele>
        <time>2017-01-25T09:34:57Z</time>
      </trkpt>
      <trkpt lat="43.53286" lon="5.30541">
        <ele>276</ele>
        <time>2017-01-25T09:35:04Z</time>
      </trkpt>
      <trkpt lat="43.53295" lon="5.30542">
        <ele>274</ele>
        <time>2017-01-25T09:35:11Z</time>
      </trkpt>
      <trkpt lat="43.53303" lon="5.30542">
        <ele>274</ele>
        <time>2017-01-25T09:35:17Z</time>
      </trkpt>
      <trkpt lat="43.5331" lon="5.3054">
        <ele>274</ele>
        <time>2017-01-25T09:35:24Z</time>
      </trkpt>
      <trkpt lat="43.53319" lon="5.30541">
        <ele>274</ele>
        <time>2017-01-25T09:35:31Z</time>
      </trkpt>
      <trkpt lat="43.53328" lon="5.3054">
        <ele>274</ele>
        <time>2017-01-25T09:35:37Z</time>
      </trkpt>
      <trkpt lat="43.53336" lon="5.30539">
        <ele>273</ele>
        <time>2017-01-25T09:35:45Z</time>
      </trkpt>
      <trkpt lat="43.53344" lon="5.30539">
        <ele>270</ele>
        <time>2017-01-25T09:35:52Z</time>
      </trkpt>
      <trkpt lat="43.53351" lon="5.30538">
        <ele>271</ele>
        <time>2017-01-25T09:35:57Z</time>
      </trkpt>
      <trkpt lat="43.53358" lon="5.30538">
        <ele>271</ele>
        <time>2017-01-25T09:36:03Z</time>
      </trkpt>
      <trkpt lat="43.53366" lon="5.30539">
        <ele>270</ele>
        <time>2017-01-25T09:36:09Z</time>
      </trkpt>
      <trkpt lat="43.53374" lon="5.30545">
        <ele>267</ele>
        <time>2017-01-25T09:36:20Z</time>
      </trkpt>
      <trkpt lat="43.53375" lon="5.30557">
        <ele>265</ele>
        <time>2017-01-25T09:36:31Z</time>
      </trkpt>
      <trkpt lat="43.53374" lon="5.30568">
        <ele>264</ele>
        <time>2017-01-25T09:36:39Z</time>
      </trkpt>
      <trkpt lat="43.5337" lon="5.30578">
        <ele>264</ele>
        <time>2017-01-25T09:36:47Z</time>
      </trkpt>
      <trkpt lat="43.53366" lon="5.30589">
        <ele>264</ele>
        <time>2017-01-25T09:36:54Z</time>
      </trkpt>
      <trkpt lat="43.53361" lon="5.30597">
        <ele>263</ele>
        <time>2017-01-25T09:37:01Z</time>
      </trkpt>
      <trkpt lat="43.53356" lon="5.30607">
        <ele>263</ele>
        <time>2017-01-25T09:37:09Z</time>
      </trkpt>
      <trkpt lat="43.53351" lon="5.30616">
        <ele>263</ele>
        <time>2017-01-25T09:37:17Z</time>
      </trkpt>
      <trkpt lat="43.53347" lon="5.30625">
        <ele>262</ele>
        <time>2017-01-25T09:37:24Z</time>
      </trkpt>
      <trkpt lat="43.53342" lon="5.30635">
        <ele>260</ele>
        <time>2017-01-25T09:37:32Z</time>
      </trkpt>
      <trkpt lat="43.53337" lon="5.30644">
        <ele>260</ele>
        <time>2017-01-25T09:37:40Z</time>
      </trkpt>
      <trkpt lat="43.53331" lon="5.30653">
        <ele>260</ele>
        <time>2017-01-25T09:37:48Z</time>
      </trkpt>
      <trkpt lat="43.53325" lon="5.3066">
        <ele>259</ele>
        <time>2017-01-25T09:37:56Z</time>
      </trkpt>
      <trkpt lat="43.53317" lon="5.30664">
        <ele>252</ele>
        <time>2017-01-25T09:38:48Z</time>
      </trkpt>
      <trkpt lat="43.53311" lon="5.3067">
        <ele>254</ele>
        <time>2017-01-25T09:39:02Z</time>
      </trkpt>
      <trkpt lat="43.53303" lon="5.30675">
        <ele>253</ele>
        <time>2017-01-25T09:39:09Z</time>
      </trkpt>
      <trkpt lat="43.53296" lon="5.3068">
        <ele>254</ele>
        <time>2017-01-25T09:39:16Z</time>
      </trkpt>
      <trkpt lat="43.53288" lon="5.30685">
        <ele>255</ele>
        <time>2017-01-25T09:39:25Z</time>
      </trkpt>
      <trkpt lat="43.5328" lon="5.30689">
        <ele>252</ele>
        <time>2017-01-25T09:39:35Z</time>
      </trkpt>
      <trkpt lat="43.53272" lon="5.30692">
        <ele>252</ele>
        <time>2017-01-25T09:39:42Z</time>
      </trkpt>
      <trkpt lat="43.53264" lon="5.30696">
        <ele>250</ele>
        <time>2017-01-25T09:39:49Z</time>
      </trkpt>
      <trkpt lat="43.53255" lon="5.30698">
        <ele>245</ele>
        <time>2017-01-25T09:39:59Z</time>
      </trkpt>
      <trkpt lat="43.53247" lon="5.30702">
        <ele>242</ele>
        <time>2017-01-25T09:40:10Z</time>
      </trkpt>
      <trkpt lat="43.53239" lon="5.30706">
        <ele>245</ele>
        <time>2017-01-25T09:40:23Z</time>
      </trkpt>
      <trkpt lat="43.53231" lon="5.30707">
        <ele>246</ele>
        <time>2017-01-25T09:40:33Z</time>
      </trkpt>
      <trkpt lat="43.53223" lon="5.30709">
        <ele>246</ele>
        <time>2017-01-25T09:40:39Z</time>
      </trkpt>
      <trkpt lat="43.53214" lon="5.30709">
        <ele>247</ele>
        <time>2017-01-25T09:40:47Z</time>
      </trkpt>
      <trkpt lat="43.53205" lon="5.30707">
        <ele>245</ele>
        <time>2017-01-25T09:40:54Z</time>
      </trkpt>
      <trkpt lat="43.53198" lon="5.30706">
        <ele>245</ele>
        <time>2017-01-25T09:41:01Z</time>
      </trkpt>
      <trkpt lat="43.5319" lon="5.30707">
        <ele>244</ele>
        <time>2017-01-25T09:41:09Z</time>
      </trkpt>
      <trkpt lat="43.53181" lon="5.30712">
        <ele>244</ele>
        <time>2017-01-25T09:41:19Z</time>
      </trkpt>
      <trkpt lat="43.53173" lon="5.30714">
        <ele>246</ele>
        <time>2017-01-25T09:41:25Z</time>
      </trkpt>
      <trkpt lat="43.53165" lon="5.30713">
        <ele>245</ele>
        <time>2017-01-25T09:41:32Z</time>
      </trkpt>
      <trkpt lat="43.53157" lon="5.30715">
        <ele>245</ele>
        <time>2017-01-25T09:41:38Z</time>
      </trkpt>
      <trkpt lat="43.53149" lon="5.30716">
        <ele>245</ele>
        <time>2017-01-25T09:41:44Z</time>
      </trkpt>
      <trkpt lat="43.53141" lon="5.30717">
        <ele>245</ele>
        <time>2017-01-25T09:41:50Z</time>
      </trkpt>
      <trkpt lat="43.53132" lon="5.30716">
        <ele>245</ele>
        <time>2017-01-25T09:41:56Z</time>
      </trkpt>
      <trkpt lat="43.53124" lon="5.30717">
        <ele>244</ele>
        <time>2017-01-25T09:42:03Z</time>
      </trkpt>
      <trkpt lat="43.53115" lon="5.30718">
        <ele>245</ele>
        <time>2017-01-25T09:42:10Z</time>
      </trkpt>
      <trkpt lat="43.53108" lon="5.30717">
        <ele>245</ele>
        <time>2017-01-25T09:42:16Z</time>
      </trkpt>
      <trkpt lat="43.53099" lon="5.30718">
        <ele>245</ele>
        <time>2017-01-25T09:42:22Z</time>
      </trkpt>
      <trkpt lat="43.53091" lon="5.3072">
        <ele>243</ele>
        <time>2017-01-25T09:42:29Z</time>
      </trkpt>
      <trkpt lat="43.53083" lon="5.3072">
        <ele>242</ele>
        <time>2017-01-25T09:42:36Z</time>
      </trkpt>
      <trkpt lat="43.53074" lon="5.30721">
        <ele>242</ele>
        <time>2017-01-25T09:42:42Z</time>
      </trkpt>
      <trkpt lat="43.53067" lon="5.30721">
        <ele>240</ele>
        <time>2017-01-25T09:42:49Z</time>
      </trkpt>
      <trkpt lat="43.53058" lon="5.30721">
        <ele>241</ele>
        <time>2017-01-25T09:42:55Z</time>
      </trkpt>
      <trkpt lat="43.5305" lon="5.30724">
        <ele>240</ele>
        <time>2017-01-25T09:43:02Z</time>
      </trkpt>
      <trkpt lat="43.53042" lon="5.30728">
        <ele>241</ele>
        <time>2017-01-25T09:43:07Z</time>
      </trkpt>
      <trkpt lat="43.53036" lon="5.30736">
        <ele>240</ele>
        <time>2017-01-25T09:43:15Z</time>
      </trkpt>
      <trkpt lat="43.5303" lon="5.30743">
        <ele>239</ele>
        <time>2017-01-25T09:43:24Z</time>
      </trkpt>
      <trkpt lat="43.53027" lon="5.30754">
        <ele>238</ele>
        <time>2017-01-25T09:43:31Z</time>
      </trkpt>
      <trkpt lat="43.53022" lon="5.30763">
        <ele>238</ele>
        <time>2017-01-25T09:43:38Z</time>
      </trkpt>
      <trkpt lat="43.53018" lon="5.30772">
        <ele>236</ele>
        <time>2017-01-25T09:43:45Z</time>
      </trkpt>
      <trkpt lat="43.53011" lon="5.30781">
        <ele>236</ele>
        <time>2017-01-25T09:43:52Z</time>
      </trkpt>
      <trkpt lat="43.53007" lon="5.3079">
        <ele>237</ele>
        <time>2017-01-25T09:43:58Z</time>
      </trkpt>
      <trkpt lat="43.53008" lon="5.30801">
        <ele>237</ele>
        <time>2017-01-25T09:44:05Z</time>
      </trkpt>
      <trkpt lat="43.53015" lon="5.30808">
        <ele>236</ele>
        <time>2017-01-25T09:44:12Z</time>
      </trkpt>
      <trkpt lat="43.53022" lon="5.30815">
        <ele>235</ele>
        <time>2017-01-25T09:44:20Z</time>
      </trkpt>
      <trkpt lat="43.53029" lon="5.30823">
        <ele>234</ele>
        <time>2017-01-25T09:44:26Z</time>
      </trkpt>
      <trkpt lat="43.53035" lon="5.3083">
        <ele>233</ele>
        <time>2017-01-25T09:44:33Z</time>
      </trkpt>
      <trkpt lat="43.53041" lon="5.30838">
        <ele>234</ele>
        <time>2017-01-25T09:44:40Z</time>
      </trkpt>
      <trkpt lat="43.53047" lon="5.30847">
        <ele>236</ele>
        <time>2017-01-25T09:44:48Z</time>
      </trkpt>
      <trkpt lat="43.53051" lon="5.30858">
        <ele>237</ele>
        <time>2017-01-25T09:44:55Z</time>
      </trkpt>
      <trkpt lat="43.53053" lon="5.30868">
        <ele>237</ele>
        <time>2017-01-25T09:45:01Z</time>
      </trkpt>
      <trkpt lat="43.53055" lon="5.30879">
        <ele>238</ele>
        <time>2017-01-25T09:45:10Z</time>
      </trkpt>
      <trkpt lat="43.53054" lon="5.3089">
        <ele>238</ele>
        <time>2017-01-25T09:45:17Z</time>
      </trkpt>
      <trkpt lat="43.53052" lon="5.30901">
        <ele>239</ele>
        <time>2017-01-25T09:45:24Z</time>
      </trkpt>
      <trkpt lat="43.53051" lon="5.30912">
        <ele>239</ele>
        <time>2017-01-25T09:45:33Z</time>
      </trkpt>
      <trkpt lat="43.53048" lon="5.30922">
        <ele>239</ele>
        <time>2017-01-25T09:45:39Z</time>
      </trkpt>
      <trkpt lat="43.53043" lon="5.30932">
        <ele>241</ele>
        <time>2017-01-25T09:45:45Z</time>
      </trkpt>
      <trkpt lat="43.5305" lon="5.30936">
        <ele>244</ele>
        <time>2017-01-25T09:46:20Z</time>
      </trkpt>
      <trkpt lat="43.53052" lon="5.30947">
        <ele>242</ele>
        <time>2017-01-25T09:46:47Z</time>
      </trkpt>
      <trkpt lat="43.53059" lon="5.30953">
        <ele>242</ele>
        <time>2017-01-25T09:46:58Z</time>
      </trkpt>
      <trkpt lat="43.53068" lon="5.30954">
        <ele>242</ele>
        <time>2017-01-25T09:47:05Z</time>
      </trkpt>
      <trkpt lat="43.53075" lon="5.30961">
        <ele>245</ele>
        <time>2017-01-25T09:47:13Z</time>
      </trkpt>
      <trkpt lat="43.5308" lon="5.3097">
        <ele>243</ele>
        <time>2017-01-25T09:47:24Z</time>
      </trkpt>
      <trkpt lat="43.53083" lon="5.3098">
        <ele>243</ele>
        <time>2017-01-25T09:47:38Z</time>
      </trkpt>
      <trkpt lat="43.53087" lon="5.30991">
        <ele>244</ele>
        <time>2017-01-25T09:47:46Z</time>
      </trkpt>
      <trkpt lat="43.5309" lon="5.31001">
        <ele>246</ele>
        <time>2017-01-25T09:47:54Z</time>
      </trkpt>
      <trkpt lat="43.53096" lon="5.31011">
        <ele>248</ele>
        <time>2017-01-25T09:48:01Z</time>
      </trkpt>
      <trkpt lat="43.53103" lon="5.31018">
        <ele>250</ele>
        <time>2017-01-25T09:48:10Z</time>
      </trkpt>
      <trkpt lat="43.53111" lon="5.31021">
        <ele>249</ele>
        <time>2017-01-25T09:48:18Z</time>
      </trkpt>
      <trkpt lat="43.53119" lon="5.31024">
        <ele>251</ele>
        <time>2017-01-25T09:48:28Z</time>
      </trkpt>
      <trkpt lat="43.53125" lon="5.31031">
        <ele>253</ele>
        <time>2017-01-25T09:48:35Z</time>
      </trkpt>
      <trkpt lat="43.53132" lon="5.31038">
        <ele>252</ele>
        <time>2017-01-25T09:48:42Z</time>
      </trkpt>
      <trkpt lat="43.53139" lon="5.31043">
        <ele>252</ele>
        <time>2017-01-25T09:48:50Z</time>
      </trkpt>
      <trkpt lat="43.53147" lon="5.31044">
        <ele>253</ele>
        <time>2017-01-25T09:48:58Z</time>
      </trkpt>
      <trkpt lat="43.53154" lon="5.31045">
        <ele>252</ele>
        <time>2017-01-25T09:49:06Z</time>
      </trkpt>
      <trkpt lat="43.53163" lon="5.31044">
        <ele>253</ele>
        <time>2017-01-25T09:49:17Z</time>
      </trkpt>
      <trkpt lat="43.53171" lon="5.31049">
        <ele>255</ele>
        <time>2017-01-25T09:49:24Z</time>
      </trkpt>
      <trkpt lat="43.53178" lon="5.31056">
        <ele>257</ele>
        <time>2017-01-25T09:49:32Z</time>
      </trkpt>
      <trkpt lat="43.53186" lon="5.3106">
        <ele>256</ele>
        <time>2017-01-25T09:49:41Z</time>
      </trkpt>
      <trkpt lat="43.53193" lon="5.31066">
        <ele>259</ele>
        <time>2017-01-25T09:49:49Z</time>
      </trkpt>
      <trkpt lat="43.53201" lon="5.31071">
        <ele>260</ele>
        <time>2017-01-25T09:49:55Z</time>
      </trkpt>
      <trkpt lat="43.53209" lon="5.31074">
        <ele>259</ele>
        <time>2017-01-25T09:50:02Z</time>
      </trkpt>
      <trkpt lat="43.53215" lon="5.3108">
        <ele>259</ele>
        <time>2017-01-25T09:50:11Z</time>
      </trkpt>
      <trkpt lat="43.53222" lon="5.31089">
        <ele>260</ele>
        <time>2017-01-25T09:50:19Z</time>
      </trkpt>
      <trkpt lat="43.53228" lon="5.31097">
        <ele>259</ele>
        <time>2017-01-25T09:50:26Z</time>
      </trkpt>
      <trkpt lat="43.53232" lon="5.31108">
        <ele>261</ele>
        <time>2017-01-25T09:50:43Z</time>
      </trkpt>
      <trkpt lat="43.53238" lon="5.31116">
        <ele>260</ele>
        <time>2017-01-25T09:50:54Z</time>
      </trkpt>
      <trkpt lat="43.53246" lon="5.3112">
        <ele>261</ele>
        <time>2017-01-25T09:51:01Z</time>
      </trkpt>
      <trkpt lat="43.53253" lon="5.31116">
        <ele>262</ele>
        <time>2017-01-25T09:51:10Z</time>
      </trkpt>
      <trkpt lat="43.53261" lon="5.31112">
        <ele>262</ele>
        <time>2017-01-25T09:51:18Z</time>
      </trkpt>
      <trkpt lat="43.53269" lon="5.3111">
        <ele>262</ele>
        <time>2017-01-25T09:51:29Z</time>
      </trkpt>
      <trkpt lat="43.53277" lon="5.31113">
        <ele>264</ele>
        <time>2017-01-25T09:51:35Z</time>
      </trkpt>
      <trkpt lat="43.53284" lon="5.3112">
        <ele>265</ele>
        <time>2017-01-25T09:51:43Z</time>
      </trkpt>
      <trkpt lat="43.53291" lon="5.31126">
        <ele>265</ele>
        <time>2017-01-25T09:51:51Z</time>
      </trkpt>
      <trkpt lat="43.53299" lon="5.31129">
        <ele>266</ele>
        <time>2017-01-25T09:52:01Z</time>
      </trkpt>
      <trkpt lat="43.53307" lon="5.31127">
        <ele>268</ele>
        <time>2017-01-25T09:52:08Z</time>
      </trkpt>
      <trkpt lat="43.53313" lon="5.31122">
        <ele>265</ele>
        <time>2017-01-25T09:52:17Z</time>
      </trkpt>
      <trkpt lat="43.53321" lon="5.31118">
        <ele>262</ele>
        <time>2017-01-25T09:52:27Z</time>
      </trkpt>
      <trkpt lat="43.53329" lon="5.31114">
        <ele>264</ele>
        <time>2017-01-25T09:52:33Z</time>
      </trkpt>
      <trkpt lat="43.53337" lon="5.31111">
        <ele>266</ele>
        <time>2017-01-25T09:52:40Z</time>
      </trkpt>
      <trkpt lat="43.53346" lon="5.31108">
        <ele>264</ele>
        <time>2017-01-25T09:52:49Z</time>
      </trkpt>
      <trkpt lat="43.53354" lon="5.31105">
        <ele>265</ele>
        <time>2017-01-25T09:52:56Z</time>
      </trkpt>
      <trkpt lat="43.53362" lon="5.311">
        <ele>264</ele>
        <time>2017-01-25T09:53:05Z</time>
      </trkpt>
      <trkpt lat="43.5337" lon="5.31096">
        <ele>263</ele>
        <time>2017-01-25T09:53:13Z</time>
      </trkpt>
      <trkpt lat="43.53379" lon="5.31093">
        <ele>263</ele>
        <time>2017-01-25T09:53:23Z</time>
      </trkpt>
      <trkpt lat="43.53385" lon="5.31089">
        <ele>263</ele>
        <time>2017-01-25T09:53:29Z</time>
      </trkpt>
      <trkpt lat="43.53394" lon="5.31085">
        <ele>266</ele>
        <time>2017-01-25T09:53:35Z</time>
      </trkpt>
      <trkpt lat="43.53401" lon="5.31083">
        <ele>268</ele>
        <time>2017-01-25T09:53:41Z</time>
      </trkpt>
      <trkpt lat="43.5341" lon="5.31081">
        <ele>267</ele>
        <time>2017-01-25T09:53:50Z</time>
      </trkpt>
      <trkpt lat="43.53419" lon="5.31079">
        <ele>268</ele>
        <time>2017-01-25T09:53:58Z</time>
      </trkpt>
      <trkpt lat="43.53427" lon="5.31076">
        <ele>267</ele>
        <time>2017-01-25T09:54:07Z</time>
      </trkpt>
      <trkpt lat="43.53436" lon="5.31074">
        <ele>269</ele>
        <time>2017-01-25T09:54:14Z</time>
      </trkpt>
      <trkpt lat="43.53443" lon="5.3107">
        <ele>270</ele>
        <time>2017-01-25T09:54:21Z</time>
      </trkpt>
      <trkpt lat="43.53452" lon="5.31067">
        <ele>272</ele>
        <time>2017-01-25T09:54:28Z</time>
      </trkpt>
      <trkpt lat="43.53459" lon="5.31063">
        <ele>272</ele>
        <time>2017-01-25T09:54:35Z</time>
      </trkpt>
      <trkpt lat="43.53467" lon="5.3106">
        <ele>272</ele>
        <time>2017-01-25T09:54:43Z</time>
      </trkpt>
      <trkpt lat="43.53476" lon="5.31058">
        <ele>273</ele>
        <time>2017-01-25T09:54:50Z</time>
      </trkpt>
      <trkpt lat="43.53484" lon="5.31055">
        <ele>272</ele>
        <time>2017-01-25T09:55:00Z</time>
      </trkpt>
      <trkpt lat="43.53492" lon="5.31053">
        <ele>273</ele>
        <time>2017-01-25T09:55:07Z</time>
      </trkpt>
      <trkpt lat="43.535" lon="5.31049">
        <ele>274</ele>
        <time>2017-01-25T09:55:15Z</time>
      </trkpt>
      <trkpt lat="43.53509" lon="5.31046">
        <ele>275</ele>
        <time>2017-01-25T09:55:23Z</time>
      </trkpt>
      <trkpt lat="43.53517" lon="5.31043">
        <ele>275</ele>
        <time>2017-01-25T09:55:32Z</time>
      </trkpt>
      <trkpt lat="43.53526" lon="5.3104">
        <ele>274</ele>
        <time>2017-01-25T09:55:40Z</time>
      </trkpt>
      <trkpt lat="43.53534" lon="5.31038">
        <ele>274</ele>
        <time>2017-01-25T09:55:47Z</time>
      </trkpt>
      <trkpt lat="43.53542" lon="5.31035">
        <ele>276</ele>
        <time>2017-01-25T09:55:53Z</time>
      </trkpt>
      <trkpt lat="43.53551" lon="5.31031">
        <ele>275</ele>
        <time>2017-01-25T09:56:01Z</time>
      </trkpt>
      <trkpt lat="43.53558" lon="5.31028">
        <ele>274</ele>
        <time>2017-01-25T09:56:08Z</time>
      </trkpt>
      <trkpt lat="43.53566" lon="5.31024">
        <ele>274</ele>
        <time>2017-01-25T09:56:15Z</time>
      </trkpt>
      <trkpt lat="43.53573" lon="5.31018">
        <ele>275</ele>
        <time>2017-01-25T09:56:25Z</time>
      </trkpt>
      <trkpt lat="43.53581" lon="5.31016">
        <ele>274</ele>
        <time>2017-01-25T09:56:31Z</time>
      </trkpt>
      <trkpt lat="43.53589" lon="5.31012">
        <ele>275</ele>
        <time>2017-01-25T09:56:37Z</time>
      </trkpt>
      <trkpt lat="43.53597" lon="5.3101">
        <ele>275</ele>
        <time>2017-01-25T09:56:44Z</time>
      </trkpt>
      <trkpt lat="43.53605" lon="5.31011">
        <ele>277</ele>
        <time>2017-01-25T09:56:50Z</time>
      </trkpt>
      <trkpt lat="43.53614" lon="5.31011">
        <ele>276</ele>
        <time>2017-01-25T09:56:58Z</time>
      </trkpt>
      <trkpt lat="43.53623" lon="5.31012">
        <ele>276</ele>
        <time>2017-01-25T09:57:05Z</time>
      </trkpt>
      <trkpt lat="43.53632" lon="5.31014">
        <ele>274</ele>
        <time>2017-01-25T09:57:15Z</time>
      </trkpt>
      <trkpt lat="43.5364" lon="5.31015">
        <ele>271</ele>
        <time>2017-01-25T09:57:24Z</time>
      </trkpt>
      <trkpt lat="43.53648" lon="5.31014">
        <ele>273</ele>
        <time>2017-01-25T09:57:29Z</time>
      </trkpt>
      <trkpt lat="43.53656" lon="5.31012">
        <ele>272</ele>
        <time>2017-01-25T09:57:36Z</time>
      </trkpt>
      <trkpt lat="43.53663" lon="5.31013">
        <ele>271</ele>
        <time>2017-01-25T09:57:43Z</time>
      </trkpt>
      <trkpt lat="43.53671" lon="5.31017">
        <ele>273</ele>
        <time>2017-01-25T09:57:49Z</time>
      </trkpt>
      <trkpt lat="43.53677" lon="5.31024">
        <ele>272</ele>
        <time>2017-01-25T09:57:55Z</time>
      </trkpt>
      <trkpt lat="43.53681" lon="5.31034">
        <ele>273</ele>
        <time>2017-01-25T09:58:02Z</time>
      </trkpt>
      <trkpt lat="43.53684" lon="5.31046">
        <ele>275</ele>
        <time>2017-01-25T09:58:09Z</time>
      </trkpt>
      <trkpt lat="43.53686" lon="5.31057">
        <ele>273</ele>
        <time>2017-01-25T09:58:17Z</time>
      </trkpt>
      <trkpt lat="43.53689" lon="5.31068">
        <ele>273</ele>
        <time>2017-01-25T09:58:25Z</time>
      </trkpt>
      <trkpt lat="43.53692" lon="5.31078">
        <ele>274</ele>
        <time>2017-01-25T09:58:31Z</time>
      </trkpt>
      <trkpt lat="43.53696" lon="5.31089">
        <ele>274</ele>
        <time>2017-01-25T09:58:39Z</time>
      </trkpt>
      <trkpt lat="43.53702" lon="5.31097">
        <ele>274</ele>
        <time>2017-01-25T09:58:46Z</time>
      </trkpt>
      <trkpt lat="43.53709" lon="5.31104">
        <ele>273</ele>
        <time>2017-01-25T09:58:53Z</time>
      </trkpt>
      <trkpt lat="43.53718" lon="5.31107">
        <ele>271</ele>
        <time>2017-01-25T09:59:02Z</time>
      </trkpt>
      <trkpt lat="43.53726" lon="5.3111">
        <ele>272</ele>
        <time>2017-01-25T09:59:09Z</time>
      </trkpt>
      <trkpt lat="43.53734" lon="5.31113">
        <ele>273</ele>
        <time>2017-01-25T09:59:17Z</time>
      </trkpt>
      <trkpt lat="43.53741" lon="5.31119">
        <ele>271</ele>
        <time>2017-01-25T09:59:28Z</time>
      </trkpt>
      <trkpt lat="43.53749" lon="5.31125">
        <ele>271</ele>
        <time>2017-01-25T09:59:37Z</time>
      </trkpt>
      <trkpt lat="43.53756" lon="5.31131">
        <ele>272</ele>
        <time>2017-01-25T09:59:44Z</time>
      </trkpt>
      <trkpt lat="43.53763" lon="5.31136">
        <ele>270</ele>
        <time>2017-01-25T09:59:53Z</time>
      </trkpt>
      <trkpt lat="43.53772" lon="5.31139">
        <ele>269</ele>
        <time>2017-01-25T10:00:03Z</time>
      </trkpt>
      <trkpt lat="43.5378" lon="5.3114">
        <ele>270</ele>
        <time>2017-01-25T10:00:10Z</time>
      </trkpt>
      <trkpt lat="43.53789" lon="5.3114">
        <ele>272</ele>
        <time>2017-01-25T10:00:20Z</time>
      </trkpt>
      <trkpt lat="43.53795" lon="5.31146">
        <ele>273</ele>
        <time>2017-01-25T10:00:27Z</time>
      </trkpt>
      <trkpt lat="43.53799" lon="5.31156">
        <ele>274</ele>
        <time>2017-01-25T10:00:37Z</time>
      </trkpt>
      <trkpt lat="43.53802" lon="5.31166">
        <ele>275</ele>
        <time>2017-01-25T10:00:46Z</time>
      </trkpt>
      <trkpt lat="43.53809" lon="5.31174">
        <ele>275</ele>
        <time>2017-01-25T10:00:54Z</time>
      </trkpt>
      <trkpt lat="43.53816" lon="5.31179">
        <ele>275</ele>
        <time>2017-01-25T10:01:01Z</time>
      </trkpt>
      <trkpt lat="43.53823" lon="5.31185">
        <ele>276</ele>
        <time>2017-01-25T10:01:08Z</time>
      </trkpt>
      <trkpt lat="43.5383" lon="5.31192">
        <ele>277</ele>
        <time>2017-01-25T10:01:16Z</time>
      </trkpt>
      <trkpt lat="43.53837" lon="5.31198">
        <ele>278</ele>
        <time>2017-01-25T10:01:22Z</time>
      </trkpt>
      <trkpt lat="43.53843" lon="5.31206">
        <ele>278</ele>
        <time>2017-01-25T10:01:30Z</time>
      </trkpt>
      <trkpt lat="43.53847" lon="5.31216">
        <ele>278</ele>
        <time>2017-01-25T10:01:38Z</time>
      </trkpt>
      <trkpt lat="43.53852" lon="5.31225">
        <ele>279</ele>
        <time>2017-01-25T10:01:46Z</time>
      </trkpt>
      <trkpt lat="43.53856" lon="5.31235">
        <ele>280</ele>
        <time>2017-01-25T10:01:53Z</time>
      </trkpt>
      <trkpt lat="43.53857" lon="5.31244">
        <ele>281</ele>
        <time>2017-01-25T10:02:00Z</time>
      </trkpt>
      <trkpt lat="43.53859" lon="5.31256">
        <ele>282</ele>
        <time>2017-01-25T10:02:07Z</time>
      </trkpt>
      <trkpt lat="43.5386" lon="5.31267">
        <ele>284</ele>
        <time>2017-01-25T10:02:14Z</time>
      </trkpt>
      <trkpt lat="43.53861" lon="5.31278">
        <ele>284</ele>
        <time>2017-01-25T10:02:22Z</time>
      </trkpt>
      <trkpt lat="43.53863" lon="5.31288">
        <ele>285</ele>
        <time>2017-01-25T10:02:29Z</time>
      </trkpt>
      <trkpt lat="43.53867" lon="5.31298">
        <ele>284</ele>
        <time>2017-01-25T10:02:34Z</time>
      </trkpt>
      <trkpt lat="43.53871" lon="5.31308">
        <ele>285</ele>
        <time>2017-01-25T10:02:41Z</time>
      </trkpt>
      <trkpt lat="43.53877" lon="5.31317">
        <ele>284</ele>
        <time>2017-01-25T10:02:49Z</time>
      </trkpt>
      <trkpt lat="43.53884" lon="5.31324">
        <ele>285</ele>
        <time>2017-01-25T10:02:56Z</time>
      </trkpt>
      <trkpt lat="43.53891" lon="5.31332">
        <ele>286</ele>
        <time>2017-01-25T10:03:03Z</time>
      </trkpt>
      <trkpt lat="43.53897" lon="5.31341">
        <ele>284</ele>
        <time>2017-01-25T10:03:11Z</time>
      </trkpt>
      <trkpt lat="43.53903" lon="5.3135">
        <ele>283</ele>
        <time>2017-01-25T10:03:19Z</time>
      </trkpt>
      <trkpt lat="43.53908" lon="5.31359">
        <ele>283</ele>
        <time>2017-01-25T10:03:26Z</time>
      </trkpt>
      <trkpt lat="43.53911" lon="5.3137">
        <ele>283</ele>
        <time>2017-01-25T10:03:35Z</time>
      </trkpt>
      <trkpt lat="43.53913" lon="5.31381">
        <ele>283</ele>
        <time>2017-01-25T10:03:41Z</time>
      </trkpt>
      <trkpt lat="43.53915" lon="5.31393">
        <ele>282</ele>
        <time>2017-01-25T10:03:49Z</time>
      </trkpt>
      <trkpt lat="43.53916" lon="5.31405">
        <ele>281</ele>
        <time>2017-01-25T10:03:58Z</time>
      </trkpt>
      <trkpt lat="43.53918" lon="5.31416">
        <ele>281</ele>
        <time>2017-01-25T10:04:08Z</time>
      </trkpt>
      <trkpt lat="43.53921" lon="5.31428">
        <ele>280</ele>
        <time>2017-01-25T10:04:15Z</time>
      </trkpt>
      <trkpt lat="43.53923" lon="5.31439">
        <ele>281</ele>
        <time>2017-01-25T10:04:21Z</time>
      </trkpt>
      <trkpt lat="43.53925" lon="5.31449">
        <ele>281</ele>
        <time>2017-01-25T10:04:27Z</time>
      </trkpt>
      <trkpt lat="43.53929" lon="5.31461">
        <ele>281</ele>
        <time>2017-01-25T10:04:35Z</time>
      </trkpt>
      <trkpt lat="43.53931" lon="5.31472">
        <ele>281</ele>
        <time>2017-01-25T10:04:42Z</time>
      </trkpt>
      <trkpt lat="43.53934" lon="5.31484">
        <ele>282</ele>
        <time>2017-01-25T10:04:49Z</time>
      </trkpt>
      <trkpt lat="43.53934" lon="5.31495">
        <ele>282</ele>
        <time>2017-01-25T10:04:57Z</time>
      </trkpt>
      <trkpt lat="43.53933" lon="5.31507">
        <ele>283</ele>
        <time>2017-01-25T10:05:05Z</time>
      </trkpt>
      <trkpt lat="43.53932" lon="5.31519">
        <ele>284</ele>
        <time>2017-01-25T10:05:12Z</time>
      </trkpt>
      <trkpt lat="43.53932" lon="5.31529">
        <ele>285</ele>
        <time>2017-01-25T10:05:18Z</time>
      </trkpt>
      <trkpt lat="43.53934" lon="5.3154">
        <ele>285</ele>
        <time>2017-01-25T10:05:25Z</time>
      </trkpt>
      <trkpt lat="43.53938" lon="5.3155">
        <ele>285</ele>
        <time>2017-01-25T10:05:32Z</time>
      </trkpt>
      <trkpt lat="43.53944" lon="5.31559">
        <ele>286</ele>
        <time>2017-01-25T10:05:39Z</time>
      </trkpt>
      <trkpt lat="43.53948" lon="5.31569">
        <ele>285</ele>
        <time>2017-01-25T10:05:46Z</time>
      </trkpt>
      <trkpt lat="43.53946" lon="5.31581">
        <ele>285</ele>
        <time>2017-01-25T10:05:54Z</time>
      </trkpt>
      <trkpt lat="43.53941" lon="5.3159">
        <ele>284</ele>
        <time>2017-01-25T10:06:01Z</time>
      </trkpt>
      <trkpt lat="43.53936" lon="5.31598">
        <ele>284</ele>
        <time>2017-01-25T10:06:08Z</time>
      </trkpt>
      <trkpt lat="43.53931" lon="5.31608">
        <ele>284</ele>
        <time>2017-01-25T10:06:30Z</time>
      </trkpt>
      <trkpt lat="43.53925" lon="5.31616">
        <ele>284</ele>
        <time>2017-01-25T10:12:53Z</time>
      </trkpt>
      <trkpt lat="43.53918" lon="5.31622">
        <ele>283</ele>
        <time>2017-01-25T10:13:01Z</time>
      </trkpt>
      <trkpt lat="43.5391" lon="5.31626">
        <ele>284</ele>
        <time>2017-01-25T10:13:09Z</time>
      </trkpt>
      <trkpt lat="43.53902" lon="5.31632">
        <ele>284</ele>
        <time>2017-01-25T10:13:18Z</time>
      </trkpt>
      <trkpt lat="43.53898" lon="5.31639">
        <ele>283</ele>
        <time>2017-01-25T10:13:25Z</time>
      </trkpt>
      <trkpt lat="43.53891" lon="5.31645">
        <ele>280</ele>
        <time>2017-01-25T10:13:34Z</time>
      </trkpt>
      <trkpt lat="43.53884" lon="5.31653">
        <ele>281</ele>
        <time>2017-01-25T10:13:41Z</time>
      </trkpt>
      <trkpt lat="43.53881" lon="5.31663">
        <ele>281</ele>
        <time>2017-01-25T10:13:48Z</time>
      </trkpt>
      <trkpt lat="43.53877" lon="5.31672">
        <ele>280</ele>
        <time>2017-01-25T10:13:55Z</time>
      </trkpt>
      <trkpt lat="43.53872" lon="5.31683">
        <ele>280</ele>
        <time>2017-01-25T10:14:02Z</time>
      </trkpt>
      <trkpt lat="43.53869" lon="5.31694">
        <ele>280</ele>
        <time>2017-01-25T10:14:10Z</time>
      </trkpt>
      <trkpt lat="43.53865" lon="5.31705">
        <ele>280</ele>
        <time>2017-01-25T10:14:19Z</time>
      </trkpt>
      <trkpt lat="43.53861" lon="5.31715">
        <ele>279</ele>
        <time>2017-01-25T10:14:27Z</time>
      </trkpt>
      <trkpt lat="43.53856" lon="5.31724">
        <ele>279</ele>
        <time>2017-01-25T10:14:34Z</time>
      </trkpt>
      <trkpt lat="43.5385" lon="5.31732">
        <ele>278</ele>
        <time>2017-01-25T10:14:41Z</time>
      </trkpt>
      <trkpt lat="43.53843" lon="5.3174">
        <ele>276</ele>
        <time>2017-01-25T10:14:50Z</time>
      </trkpt>
      <trkpt lat="43.5384" lon="5.3175">
        <ele>276</ele>
        <time>2017-01-25T10:14:57Z</time>
      </trkpt>
      <trkpt lat="43.53836" lon="5.31761">
        <ele>276</ele>
        <time>2017-01-25T10:15:03Z</time>
      </trkpt>
      <trkpt lat="43.53833" lon="5.31771">
        <ele>275</ele>
        <time>2017-01-25T10:15:11Z</time>
      </trkpt>
      <trkpt lat="43.53828" lon="5.31782">
        <ele>275</ele>
        <time>2017-01-25T10:15:18Z</time>
      </trkpt>
      <trkpt lat="43.53823" lon="5.31791">
        <ele>274</ele>
        <time>2017-01-25T10:15:26Z</time>
      </trkpt>
      <trkpt lat="43.53818" lon="5.318">
        <ele>273</ele>
        <time>2017-01-25T10:15:35Z</time>
      </trkpt>
      <trkpt lat="43.53813" lon="5.31809">
        <ele>273</ele>
        <time>2017-01-25T10:15:43Z</time>
      </trkpt>
      <trkpt lat="43.53807" lon="5.31819">
        <ele>273</ele>
        <time>2017-01-25T10:15:51Z</time>
      </trkpt>
      <trkpt lat="43.53802" lon="5.31828">
        <ele>272</ele>
        <time>2017-01-25T10:15:58Z</time>
      </trkpt>
      <trkpt lat="43.53797" lon="5.31838">
        <ele>272</ele>
        <time>2017-01-25T10:16:06Z</time>
      </trkpt>
      <trkpt lat="43.53793" lon="5.31848">
        <ele>272</ele>
        <time>2017-01-25T10:16:13Z</time>
      </trkpt>
      <trkpt lat="43.53788" lon="5.31858">
        <ele>270</ele>
        <time>2017-01-25T10:16:22Z</time>
      </trkpt>
      <trkpt lat="43.53784" lon="5.31868">
        <ele>269</ele>
        <time>2017-01-25T10:16:30Z</time>
      </trkpt>
      <trkpt lat="43.5378" lon="5.31879">
        <ele>268</ele>
        <time>2017-01-25T10:16:39Z</time>
      </trkpt>
      <trkpt lat="43.53775" lon="5.31889">
        <ele>267</ele>
        <time>2017-01-25T10:16:47Z</time>
      </trkpt>
      <trkpt lat="43.53769" lon="5.31898">
        <ele>265</ele>
        <time>2017-01-25T10:16:56Z</time>
      </trkpt>
      <trkpt lat="43.53764" lon="5.31906">
        <ele>265</ele>
        <time>2017-01-25T10:17:04Z</time>
      </trkpt>
      <trkpt lat="43.53759" lon="5.31916">
        <ele>264</ele>
        <time>2017-01-25T10:17:13Z</time>
      </trkpt>
      <trkpt lat="43.53754" lon="5.31927">
        <ele>263</ele>
        <time>2017-01-25T10:17:22Z</time>
      </trkpt>
      <trkpt lat="43.53749" lon="5.31936">
        <ele>263</ele>
        <time>2017-01-25T10:17:30Z</time>
      </trkpt>
      <trkpt lat="43.53742" lon="5.31945">
        <ele>262</ele>
        <time>2017-01-25T10:17:39Z</time>
      </trkpt>
      <trkpt lat="43.53737" lon="5.31952">
        <ele>261</ele>
        <time>2017-01-25T10:17:46Z</time>
      </trkpt>
      <trkpt lat="43.53731" lon="5.31962">
        <ele>260</ele>
        <time>2017-01-25T10:17:54Z</time>
      </trkpt>
      <trkpt lat="43.53725" lon="5.31969">
        <ele>259</ele>
        <time>2017-01-25T10:18:01Z</time>
      </trkpt>
      <trkpt lat="43.53719" lon="5.31975">
        <ele>258</ele>
        <time>2017-01-25T10:18:08Z</time>
      </trkpt>
      <trkpt lat="43.5371" lon="5.31978">
        <ele>259</ele>
        <time>2017-01-25T10:18:15Z</time>
      </trkpt>
      <trkpt lat="43.53702" lon="5.31979">
        <ele>258</ele>
        <time>2017-01-25T10:18:24Z</time>
      </trkpt>
      <trkpt lat="43.53696" lon="5.31987">
        <ele>257</ele>
        <time>2017-01-25T10:18:37Z</time>
      </trkpt>
      <trkpt lat="43.53697" lon="5.31998">
        <ele>255</ele>
        <time>2017-01-25T10:18:47Z</time>
      </trkpt>
      <trkpt lat="43.53698" lon="5.3201">
        <ele>254</ele>
        <time>2017-01-25T10:18:56Z</time>
      </trkpt>
      <trkpt lat="43.53693" lon="5.3202">
        <ele>253</ele>
        <time>2017-01-25T10:19:04Z</time>
      </trkpt>
      <trkpt lat="43.53686" lon="5.32025">
        <ele>255</ele>
        <time>2017-01-25T10:19:12Z</time>
      </trkpt>
      <trkpt lat="43.53678" lon="5.32026">
        <ele>257</ele>
        <time>2017-01-25T10:19:20Z</time>
      </trkpt>
      <trkpt lat="43.53669" lon="5.32025">
        <ele>258</ele>
        <time>2017-01-25T10:19:29Z</time>
      </trkpt>
      <trkpt lat="43.53661" lon="5.32021">
        <ele>258</ele>
        <time>2017-01-25T10:19:38Z</time>
      </trkpt>
      <trkpt lat="43.53654" lon="5.32015">
        <ele>260</ele>
        <time>2017-01-25T10:19:46Z</time>
      </trkpt>
      <trkpt lat="43.53647" lon="5.32009">
        <ele>260</ele>
        <time>2017-01-25T10:19:55Z</time>
      </trkpt>
      <trkpt lat="43.5364" lon="5.32005">
        <ele>261</ele>
        <time>2017-01-25T10:20:03Z</time>
      </trkpt>
      <trkpt lat="43.53632" lon="5.32001">
        <ele>262</ele>
        <time>2017-01-25T10:20:11Z</time>
      </trkpt>
      <trkpt lat="43.53624" lon="5.31998">
        <ele>262</ele>
        <time>2017-01-25T10:20:19Z</time>
      </trkpt>
      <trkpt lat="43.53616" lon="5.31996">
        <ele>263</ele>
        <time>2017-01-25T10:20:28Z</time>
      </trkpt>
      <trkpt lat="43.53607" lon="5.31995">
        <ele>265</ele>
        <time>2017-01-25T10:20:36Z</time>
      </trkpt>
      <trkpt lat="43.536" lon="5.3199">
        <ele>266</ele>
        <time>2017-01-25T10:20:43Z</time>
      </trkpt>
      <trkpt lat="43.53593" lon="5.31982">
        <ele>266</ele>
        <time>2017-01-25T10:20:51Z</time>
      </trkpt>
      <trkpt lat="43.53587" lon="5.31975">
        <ele>264</ele>
        <time>2017-01-25T10:21:00Z</time>
      </trkpt>
      <trkpt lat="43.53581" lon="5.31966">
        <ele>265</ele>
        <time>2017-01-25T10:21:08Z</time>
      </trkpt>
      <trkpt lat="43.53573" lon="5.31961">
        <ele>267</ele>
        <time>2017-01-25T10:21:16Z</time>
      </trkpt>
      <trkpt lat="43.53566" lon="5.31956">
        <ele>267</ele>
        <time>2017-01-25T10:21:24Z</time>
      </trkpt>
      <trkpt lat="43.53557" lon="5.31953">
        <ele>267</ele>
        <time>2017-01-25T10:21:32Z</time>
      </trkpt>
      <trkpt lat="43.53549" lon="5.31951">
        <ele>267</ele>
        <time>2017-01-25T10:21:39Z</time>
      </trkpt>
      <trkpt lat="43.5354" lon="5.31948">
        <ele>268</ele>
        <time>2017-01-25T10:21:47Z</time>
      </trkpt>
      <trkpt lat="43.53532" lon="5.31943">
        <ele>269</ele>
        <time>2017-01-25T10:21:55Z</time>
      </trkpt>
      <trkpt lat="43.53525" lon="5.31937">
        <ele>269</ele>
        <time>2017-01-25T10:22:03Z</time>
      </trkpt>
      <trkpt lat="43.53518" lon="5.31931">
        <ele>269</ele>
        <time>2017-01-25T10:22:10Z</time>
      </trkpt>
      <trkpt lat="43.5351" lon="5.31925">
        <ele>269</ele>
        <time>2017-01-25T10:22:18Z</time>
      </trkpt>
      <trkpt lat="43.53504" lon="5.31919">
        <ele>268</ele>
        <time>2017-01-25T10:22:26Z</time>
      </trkpt>
      <trkpt lat="43.53496" lon="5.31914">
        <ele>267</ele>
        <time>2017-01-25T10:22:34Z</time>
      </trkpt>
      <trkpt lat="43.53487" lon="5.31914">
        <ele>265</ele>
        <time>2017-01-25T10:22:44Z</time>
      </trkpt>
      <trkpt lat="43.53479" lon="5.31912">
        <ele>267</ele>
        <time>2017-01-25T10:22:50Z</time>
      </trkpt>
      <trkpt lat="43.53471" lon="5.31911">
        <ele>268</ele>
        <time>2017-01-25T10:22:56Z</time>
      </trkpt>
      <trkpt lat="43.53464" lon="5.31907">
        <ele>270</ele>
        <time>2017-01-25T10:23:03Z</time>
      </trkpt>
      <trkpt lat="43.53459" lon="5.31897">
        <ele>269</ele>
        <time>2017-01-25T10:23:11Z</time>
      </trkpt>
      <trkpt lat="43.53455" lon="5.31887">
        <ele>270</ele>
        <time>2017-01-25T10:23:19Z</time>
      </trkpt>
      <trkpt lat="43.53451" lon="5.31878">
        <ele>269</ele>
        <time>2017-01-25T10:23:26Z</time>
      </trkpt>
      <trkpt lat="43.53447" lon="5.31869">
        <ele>268</ele>
        <time>2017-01-25T10:23:33Z</time>
      </trkpt>
      <trkpt lat="43.53441" lon="5.3186">
        <ele>267</ele>
        <time>2017-01-25T10:23:43Z</time>
      </trkpt>
      <trkpt lat="43.53434" lon="5.31852">
        <ele>267</ele>
        <time>2017-01-25T10:23:52Z</time>
      </trkpt>
      <trkpt lat="43.53427" lon="5.31844">
        <ele>268</ele>
        <time>2017-01-25T10:24:00Z</time>
      </trkpt>
      <trkpt lat="43.53421" lon="5.31837">
        <ele>268</ele>
        <time>2017-01-25T10:24:06Z</time>
      </trkpt>
      <trkpt lat="43.53416" lon="5.3183">
        <ele>266</ele>
        <time>2017-01-25T10:24:13Z</time>
      </trkpt>
      <trkpt lat="43.53411" lon="5.3182">
        <ele>267</ele>
        <time>2017-01-25T10:24:19Z</time>
      </trkpt>
      <trkpt lat="43.53406" lon="5.31811">
        <ele>267</ele>
        <time>2017-01-25T10:24:27Z</time>
      </trkpt>
      <trkpt lat="43.53402" lon="5.31801">
        <ele>267</ele>
        <time>2017-01-25T10:24:33Z</time>
      </trkpt>
      <trkpt lat="43.534" lon="5.31789">
        <ele>268</ele>
        <time>2017-01-25T10:24:41Z</time>
      </trkpt>
      <trkpt lat="43.53397" lon="5.31779">
        <ele>269</ele>
        <time>2017-01-25T10:24:48Z</time>
      </trkpt>
      <trkpt lat="43.53393" lon="5.31769">
        <ele>269</ele>
        <time>2017-01-25T10:24:54Z</time>
      </trkpt>
      <trkpt lat="43.53391" lon="5.31757">
        <ele>268</ele>
        <time>2017-01-25T10:25:03Z</time>
      </trkpt>
      <trkpt lat="43.5339" lon="5.31746">
        <ele>266</ele>
        <time>2017-01-25T10:25:10Z</time>
      </trkpt>
      <trkpt lat="43.53387" lon="5.31735">
        <ele>264</ele>
        <time>2017-01-25T10:25:20Z</time>
      </trkpt>
      <trkpt lat="43.53386" lon="5.31725">
        <ele>265</ele>
        <time>2017-01-25T10:25:26Z</time>
      </trkpt>
      <trkpt lat="43.53378" lon="5.31727">
        <ele>263</ele>
        <time>2017-01-25T10:25:58Z</time>
      </trkpt>
      <trkpt lat="43.5337" lon="5.31725">
        <ele>264</ele>
        <time>2017-01-25T10:26:06Z</time>
      </trkpt>
      <trkpt lat="43.53363" lon="5.31716">
        <ele>265</ele>
        <time>2017-01-25T10:26:17Z</time>
      </trkpt>
      <trkpt lat="43.53355" lon="5.3171">
        <ele>263</ele>
        <time>2017-01-25T10:26:59Z</time>
      </trkpt>
      <trkpt lat="43.53347" lon="5.31707">
        <ele>267</ele>
        <time>2017-01-25T10:29:37Z</time>
      </trkpt>
      <trkpt lat="43.53339" lon="5.31703">
        <ele>264</ele>
        <time>2017-01-25T10:29:49Z</time>
      </trkpt>
      <trkpt lat="43.53331" lon="5.31708">
        <ele>264</ele>
        <time>2017-01-25T10:29:59Z</time>
      </trkpt>
      <trkpt lat="43.53324" lon="5.31713">
        <ele>265</ele>
        <time>2017-01-25T10:30:05Z</time>
      </trkpt>
      <trkpt lat="43.53315" lon="5.3171">
        <ele>267</ele>
        <time>2017-01-25T10:30:36Z</time>
      </trkpt>
      <trkpt lat="43.53307" lon="5.31706">
        <ele>268</ele>
        <time>2017-01-25T10:30:51Z</time>
      </trkpt>
      <trkpt lat="43.53298" lon="5.31711">
        <ele>267</ele>
        <time>2017-01-25T10:31:03Z</time>
      </trkpt>
      <trkpt lat="43.5329" lon="5.31714">
        <ele>266</ele>
        <time>2017-01-25T10:31:14Z</time>
      </trkpt>
      <trkpt lat="43.53281" lon="5.31717">
        <ele>264</ele>
        <time>2017-01-25T10:31:24Z</time>
      </trkpt>
      <trkpt lat="43.53274" lon="5.31723">
        <ele>264</ele>
        <time>2017-01-25T10:31:36Z</time>
      </trkpt>
      <trkpt lat="43.53266" lon="5.31728">
        <ele>264</ele>
        <time>2017-01-25T10:31:48Z</time>
      </trkpt>
      <trkpt lat="43.53258" lon="5.31731">
        <ele>265</ele>
        <time>2017-01-25T10:31:58Z</time>
      </trkpt>
      <trkpt lat="43.5325" lon="5.31735">
        <ele>266</ele>
        <time>2017-01-25T10:32:11Z</time>
      </trkpt>
      <trkpt lat="43.53252" lon="5.31724">
        <ele>266</ele>
        <time>2017-01-25T10:33:37Z</time>
      </trkpt>
      <trkpt lat="43.53253" lon="5.31713">
        <ele>268</ele>
        <time>2017-01-25T10:33:44Z</time>
      </trkpt>
      <trkpt lat="43.53256" lon="5.31703">
        <ele>268</ele>
        <time>2017-01-25T10:33:51Z</time>
      </trkpt>
      <trkpt lat="43.53251" lon="5.31692">
        <ele>266</ele>
        <time>2017-01-25T10:34:05Z</time>
      </trkpt>
      <trkpt lat="43.53257" lon="5.31683">
        <ele>264</ele>
        <time>2017-01-25T10:34:32Z</time>
      </trkpt>
      <trkpt lat="43.53261" lon="5.31674">
        <ele>264</ele>
        <time>2017-01-25T10:34:39Z</time>
      </trkpt>
      <trkpt lat="43.53265" lon="5.31663">
        <ele>264</ele>
        <time>2017-01-25T10:34:46Z</time>
      </trkpt>
      <trkpt lat="43.53267" lon="5.31652">
        <ele>264</ele>
        <time>2017-01-25T10:35:08Z</time>
      </trkpt>
      <trkpt lat="43.53272" lon="5.31641">
        <ele>267</ele>
        <time>2017-01-25T10:35:27Z</time>
      </trkpt>
      <trkpt lat="43.53275" lon="5.31631">
        <ele>267</ele>
        <time>2017-01-25T10:35:35Z</time>
      </trkpt>
      <trkpt lat="43.53278" lon="5.31621">
        <ele>265</ele>
        <time>2017-01-25T10:35:44Z</time>
      </trkpt>
      <trkpt lat="43.53275" lon="5.31609">
        <ele>266</ele>
        <time>2017-01-25T10:35:53Z</time>
      </trkpt>
      <trkpt lat="43.53269" lon="5.31604">
        <ele>267</ele>
        <time>2017-01-25T10:36:01Z</time>
      </trkpt>
      <trkpt lat="43.53261" lon="5.31603">
        <ele>266</ele>
        <time>2017-01-25T10:36:08Z</time>
      </trkpt>
      <trkpt lat="43.53253" lon="5.31603">
        <ele>266</ele>
        <time>2017-01-25T10:36:15Z</time>
      </trkpt>
      <trkpt lat="43.53244" lon="5.31601">
        <ele>266</ele>
        <time>2017-01-25T10:36:23Z</time>
      </trkpt>
      <trkpt lat="43.53235" lon="5.31601">
        <ele>266</ele>
        <time>2017-01-25T10:36:31Z</time>
      </trkpt>
      <trkpt lat="43.53228" lon="5.31599">
        <ele>266</ele>
        <time>2017-01-25T10:36:44Z</time>
      </trkpt>
      <trkpt lat="43.5322" lon="5.31596">
        <ele>265</ele>
        <time>2017-01-25T10:36:52Z</time>
      </trkpt>
      <trkpt lat="43.53212" lon="5.31593">
        <ele>263</ele>
        <time>2017-01-25T10:36:59Z</time>
      </trkpt>
      <trkpt lat="43.53204" lon="5.31588">
        <ele>264</ele>
        <time>2017-01-25T10:37:05Z</time>
      </trkpt>
      <trkpt lat="43.53196" lon="5.31585">
        <ele>265</ele>
        <time>2017-01-25T10:37:12Z</time>
      </trkpt>
      <trkpt lat="43.53188" lon="5.31584">
        <ele>264</ele>
        <time>2017-01-25T10:37:20Z</time>
      </trkpt>
      <trkpt lat="43.5318" lon="5.31579">
        <ele>264</ele>
        <time>2017-01-25T10:37:27Z</time>
      </trkpt>
      <trkpt lat="43.53173" lon="5.31575">
        <ele>264</ele>
        <time>2017-01-25T10:37:33Z</time>
      </trkpt>
      <trkpt lat="43.53165" lon="5.3157">
        <ele>263</ele>
        <time>2017-01-25T10:37:41Z</time>
      </trkpt>
      <trkpt lat="43.53158" lon="5.31566">
        <ele>261</ele>
        <time>2017-01-25T10:37:49Z</time>
      </trkpt>
      <trkpt lat="43.53149" lon="5.31563">
        <ele>261</ele>
        <time>2017-01-25T10:37:56Z</time>
      </trkpt>
      <trkpt lat="43.53142" lon="5.31561">
        <ele>260</ele>
        <time>2017-01-25T10:38:04Z</time>
      </trkpt>
      <trkpt lat="43.53134" lon="5.31559">
        <ele>259</ele>
        <time>2017-01-25T10:38:11Z</time>
      </trkpt>
      <trkpt lat="43.53125" lon="5.31558">
        <ele>258</ele>
        <time>2017-01-25T10:38:18Z</time>
      </trkpt>
      <trkpt lat="43.53117" lon="5.31563">
        <ele>258</ele>
        <time>2017-01-25T10:38:25Z</time>
      </trkpt>
      <trkpt lat="43.53109" lon="5.31566">
        <ele>258</ele>
        <time>2017-01-25T10:38:37Z</time>
      </trkpt>
      <trkpt lat="43.53105" lon="5.31577">
        <ele>257</ele>
        <time>2017-01-25T10:38:57Z</time>
      </trkpt>
      <trkpt lat="43.53096" lon="5.31578">
        <ele>256</ele>
        <time>2017-01-25T10:39:09Z</time>
      </trkpt>
      <trkpt lat="43.5309" lon="5.31587">
        <ele>257</ele>
        <time>2017-01-25T10:39:20Z</time>
      </trkpt>
      <trkpt lat="43.53089" lon="5.31598">
        <ele>255</ele>
        <time>2017-01-25T10:39:27Z</time>
      </trkpt>
      <trkpt lat="43.5309" lon="5.3161">
        <ele>255</ele>
        <time>2017-01-25T10:39:35Z</time>
      </trkpt>
      <trkpt lat="43.53089" lon="5.31621">
        <ele>255</ele>
        <time>2017-01-25T10:39:43Z</time>
      </trkpt>
      <trkpt lat="43.53092" lon="5.31633">
        <ele>255</ele>
        <time>2017-01-25T10:40:15Z</time>
      </trkpt>
      <trkpt lat="43.53093" lon="5.31643">
        <ele>258</ele>
        <time>2017-01-25T10:40:27Z</time>
      </trkpt>
      <trkpt lat="43.53093" lon="5.31656">
        <ele>257</ele>
        <time>2017-01-25T10:40:37Z</time>
      </trkpt>
      <trkpt lat="43.53086" lon="5.31663">
        <ele>258</ele>
        <time>2017-01-25T10:40:50Z</time>
      </trkpt>
      <trkpt lat="43.53078" lon="5.31668">
        <ele>258</ele>
        <time>2017-01-25T10:41:02Z</time>
      </trkpt>
      <trkpt lat="43.53071" lon="5.31671">
        <ele>256</ele>
        <time>2017-01-25T10:41:13Z</time>
      </trkpt>
      <trkpt lat="43.53063" lon="5.31675">
        <ele>255</ele>
        <time>2017-01-25T10:41:21Z</time>
      </trkpt>
      <trkpt lat="43.53054" lon="5.31677">
        <ele>254</ele>
        <time>2017-01-25T10:41:31Z</time>
      </trkpt>
      <trkpt lat="43.53047" lon="5.3168">
        <ele>254</ele>
        <time>2017-01-25T10:41:38Z</time>
      </trkpt>
      <trkpt lat="43.53038" lon="5.31683">
        <ele>253</ele>
        <time>2017-01-25T10:41:48Z</time>
      </trkpt>
      <trkpt lat="43.5303" lon="5.31686">
        <ele>250</ele>
        <time>2017-01-25T10:41:59Z</time>
      </trkpt>
      <trkpt lat="43.53022" lon="5.31689">
        <ele>252</ele>
        <time>2017-01-25T10:42:10Z</time>
      </trkpt>
      <trkpt lat="43.53013" lon="5.31691">
        <ele>250</ele>
        <time>2017-01-25T10:42:17Z</time>
      </trkpt>
      <trkpt lat="43.53005" lon="5.31691">
        <ele>250</ele>
        <time>2017-01-25T10:42:25Z</time>
      </trkpt>
      <trkpt lat="43.52998" lon="5.31693">
        <ele>249</ele>
        <time>2017-01-25T10:42:36Z</time>
      </trkpt>
      <trkpt lat="43.5299" lon="5.31695">
        <ele>249</ele>
        <time>2017-01-25T10:42:46Z</time>
      </trkpt>
      <trkpt lat="43.52989" lon="5.31707">
        <ele>249</ele>
        <time>2017-01-25T10:42:56Z</time>
      </trkpt>
      <trkpt lat="43.52989" lon="5.3172">
        <ele>248</ele>
        <time>2017-01-25T10:43:05Z</time>
      </trkpt>
      <trkpt lat="43.5299" lon="5.31731">
        <ele>249</ele>
        <time>2017-01-25T10:43:12Z</time>
      </trkpt>
      <trkpt lat="43.52989" lon="5.31742">
        <ele>248</ele>
        <time>2017-01-25T10:43:20Z</time>
      </trkpt>
      <trkpt lat="43.52983" lon="5.3175">
        <ele>247</ele>
        <time>2017-01-25T10:43:29Z</time>
      </trkpt>
      <trkpt lat="43.52975" lon="5.31751">
        <ele>248</ele>
        <time>2017-01-25T10:43:39Z</time>
      </trkpt>
      <trkpt lat="43.52967" lon="5.31758">
        <ele>248</ele>
        <time>2017-01-25T10:43:50Z</time>
      </trkpt>
      <trkpt lat="43.52964" lon="5.31768">
        <ele>248</ele>
        <time>2017-01-25T10:43:57Z</time>
      </trkpt>
      <trkpt lat="43.52964" lon="5.3178">
        <ele>248</ele>
        <time>2017-01-25T10:44:04Z</time>
      </trkpt>
      <trkpt lat="43.52963" lon="5.31792">
        <ele>248</ele>
        <time>2017-01-25T10:44:14Z</time>
      </trkpt>
      <trkpt lat="43.5296" lon="5.31802">
        <ele>246</ele>
        <time>2017-01-25T10:44:22Z</time>
      </trkpt>
      <trkpt lat="43.52958" lon="5.31814">
        <ele>246</ele>
        <time>2017-01-25T10:44:32Z</time>
      </trkpt>
      <trkpt lat="43.52954" lon="5.31824">
        <ele>245</ele>
        <time>2017-01-25T10:44:41Z</time>
      </trkpt>
      <trkpt lat="43.52952" lon="5.31836">
        <ele>244</ele>
        <time>2017-01-25T10:44:53Z</time>
      </trkpt>
      <trkpt lat="43.52947" lon="5.31844">
        <ele>243</ele>
        <time>2017-01-25T10:45:01Z</time>
      </trkpt>
      <trkpt lat="43.52939" lon="5.3185">
        <ele>244</ele>
        <time>2017-01-25T10:45:11Z</time>
      </trkpt>
      <trkpt lat="43.52932" lon="5.31857">
        <ele>243</ele>
        <time>2017-01-25T10:45:23Z</time>
      </trkpt>
      <trkpt lat="43.52929" lon="5.31867">
        <ele>245</ele>
        <time>2017-01-25T10:45:31Z</time>
      </trkpt>
      <trkpt lat="43.52928" lon="5.31879">
        <ele>245</ele>
        <time>2017-01-25T10:45:41Z</time>
      </trkpt>
      <trkpt lat="43.52927" lon="5.31891">
        <ele>242</ele>
        <time>2017-01-25T10:45:53Z</time>
      </trkpt>
      <trkpt lat="43.52931" lon="5.31902">
        <ele>240</ele>
        <time>2017-01-25T10:46:19Z</time>
      </trkpt>
      <trkpt lat="43.52937" lon="5.31911">
        <ele>236</ele>
        <time>2017-01-25T10:46:32Z</time>
      </trkpt>
      <trkpt lat="43.5294" lon="5.31922">
        <ele>234</ele>
        <time>2017-01-25T10:46:45Z</time>
      </trkpt>
      <trkpt lat="43.52932" lon="5.31927">
        <ele>237</ele>
        <time>2017-01-25T10:48:21Z</time>
      </trkpt>
      <trkpt lat="43.52923" lon="5.31932">
        <ele>239</ele>
        <time>2017-01-25T10:48:30Z</time>
      </trkpt>
      <trkpt lat="43.52916" lon="5.31938">
        <ele>238</ele>
        <time>2017-01-25T10:48:39Z</time>
      </trkpt>
      <trkpt lat="43.52908" lon="5.31941">
        <ele>238</ele>
        <time>2017-01-25T10:48:46Z</time>
      </trkpt>
      <trkpt lat="43.52899" lon="5.31941">
        <ele>239</ele>
        <time>2017-01-25T10:48:55Z</time>
      </trkpt>
      <trkpt lat="43.52891" lon="5.31943">
        <ele>239</ele>
        <time>2017-01-25T10:49:04Z</time>
      </trkpt>
      <trkpt lat="43.52884" lon="5.3195">
        <ele>240</ele>
        <time>2017-01-25T10:49:14Z</time>
      </trkpt>
      <trkpt lat="43.52879" lon="5.3196">
        <ele>242</ele>
        <time>2017-01-25T10:49:25Z</time>
      </trkpt>
      <trkpt lat="43.52875" lon="5.31969">
        <ele>241</ele>
        <time>2017-01-25T10:49:37Z</time>
      </trkpt>
      <trkpt lat="43.52869" lon="5.31978">
        <ele>241</ele>
        <time>2017-01-25T10:49:48Z</time>
      </trkpt>
      <trkpt lat="43.52864" lon="5.31987">
        <ele>243</ele>
        <time>2017-01-25T10:49:59Z</time>
      </trkpt>
      <trkpt lat="43.52856" lon="5.31992">
        <ele>243</ele>
        <time>2017-01-25T10:50:08Z</time>
      </trkpt>
      <trkpt lat="43.52849" lon="5.32">
        <ele>242</ele>
        <time>2017-01-25T10:50:17Z</time>
      </trkpt>
      <trkpt lat="43.5284" lon="5.31999">
        <ele>241</ele>
        <time>2017-01-25T10:50:28Z</time>
      </trkpt>
      <trkpt lat="43.52834" lon="5.31992">
        <ele>240</ele>
        <time>2017-01-25T10:50:40Z</time>
      </trkpt>
      <trkpt lat="43.52829" lon="5.31983">
        <ele>240</ele>
        <time>2017-01-25T10:50:54Z</time>
      </trkpt>
      <trkpt lat="43.5282" lon="5.31981">
        <ele>241</ele>
        <time>2017-01-25T10:51:06Z</time>
      </trkpt>
      <trkpt lat="43.52812" lon="5.31986">
        <ele>240</ele>
        <time>2017-01-25T10:51:15Z</time>
      </trkpt>
      <trkpt lat="43.52805" lon="5.31991">
        <ele>240</ele>
        <time>2017-01-25T10:51:22Z</time>
      </trkpt>
      <trkpt lat="43.52798" lon="5.31997">
        <ele>240</ele>
        <time>2017-01-25T10:51:29Z</time>
      </trkpt>
      <trkpt lat="43.52791" lon="5.32003">
        <ele>241</ele>
        <time>2017-01-25T10:51:37Z</time>
      </trkpt>
      <trkpt lat="43.52784" lon="5.3201">
        <ele>241</ele>
        <time>2017-01-25T10:51:46Z</time>
      </trkpt>
      <trkpt lat="43.52776" lon="5.32017">
        <ele>241</ele>
        <time>2017-01-25T10:51:55Z</time>
      </trkpt>
      <trkpt lat="43.52769" lon="5.32023">
        <ele>239</ele>
        <time>2017-01-25T10:52:04Z</time>
      </trkpt>
      <trkpt lat="43.52763" lon="5.32032">
        <ele>239</ele>
        <time>2017-01-25T10:52:13Z</time>
      </trkpt>
      <trkpt lat="43.52756" lon="5.3204">
        <ele>238</ele>
        <time>2017-01-25T10:52:21Z</time>
      </trkpt>
      <trkpt lat="43.5275" lon="5.32046">
        <ele>237</ele>
        <time>2017-01-25T10:52:28Z</time>
      </trkpt>
      <trkpt lat="43.52743" lon="5.32052">
        <ele>236</ele>
        <time>2017-01-25T10:52:35Z</time>
      </trkpt>
      <trkpt lat="43.52736" lon="5.32057">
        <ele>235</ele>
        <time>2017-01-25T10:52:42Z</time>
      </trkpt>
      <trkpt lat="43.52728" lon="5.32062">
        <ele>235</ele>
        <time>2017-01-25T10:52:49Z</time>
      </trkpt>
      <trkpt lat="43.52721" lon="5.32069">
        <ele>235</ele>
        <time>2017-01-25T10:52:56Z</time>
      </trkpt>
      <trkpt lat="43.52716" lon="5.32077">
        <ele>234</ele>
        <time>2017-01-25T10:53:04Z</time>
      </trkpt>
      <trkpt lat="43.52711" lon="5.32085">
        <ele>233</ele>
        <time>2017-01-25T10:53:12Z</time>
      </trkpt>
      <trkpt lat="43.52706" lon="5.32093">
        <ele>231</ele>
        <time>2017-01-25T10:53:19Z</time>
      </trkpt>
      <trkpt lat="43.527" lon="5.32101">
        <ele>231</ele>
        <time>2017-01-25T10:53:29Z</time>
      </trkpt>
      <trkpt lat="43.52694" lon="5.32109">
        <ele>229</ele>
        <time>2017-01-25T10:53:36Z</time>
      </trkpt>
      <trkpt lat="43.52688" lon="5.32116">
        <ele>228</ele>
        <time>2017-01-25T10:53:43Z</time>
      </trkpt>
      <trkpt lat="43.52681" lon="5.32123">
        <ele>226</ele>
        <time>2017-01-25T10:53:51Z</time>
      </trkpt>
      <trkpt lat="43.52675" lon="5.32131">
        <ele>226</ele>
        <time>2017-01-25T10:54:00Z</time>
      </trkpt>
      <trkpt lat="43.52669" lon="5.32139">
        <ele>225</ele>
        <time>2017-01-25T10:54:09Z</time>
      </trkpt>
      <trkpt lat="43.52665" lon="5.3215">
        <ele>225</ele>
        <time>2017-01-25T10:55:23Z</time>
      </trkpt>
      <trkpt lat="43.52661" lon="5.32159">
        <ele>224</ele>
        <time>2017-01-25T10:55:44Z</time>
      </trkpt>
      <trkpt lat="43.52655" lon="5.32168">
        <ele>221</ele>
        <time>2017-01-25T10:55:56Z</time>
      </trkpt>
      <trkpt lat="43.52648" lon="5.32174">
        <ele>219</ele>
        <time>2017-01-25T10:56:47Z</time>
      </trkpt>
      <trkpt lat="43.52641" lon="5.32183">
        <ele>218</ele>
        <time>2017-01-25T10:56:57Z</time>
      </trkpt>
      <trkpt lat="43.52636" lon="5.32192">
        <ele>217</ele>
        <time>2017-01-25T10:57:04Z</time>
      </trkpt>
      <trkpt lat="43.52631" lon="5.32202">
        <ele>216</ele>
        <time>2017-01-25T10:57:14Z</time>
      </trkpt>
      <trkpt lat="43.52632" lon="5.32213">
        <ele>213</ele>
        <time>2017-01-25T10:57:23Z</time>
      </trkpt>
      <trkpt lat="43.52638" lon="5.32222">
        <ele>213</ele>
        <time>2017-01-25T10:57:31Z</time>
      </trkpt>
      <trkpt lat="43.52645" lon="5.32227">
        <ele>213</ele>
        <time>2017-01-25T10:57:37Z</time>
      </trkpt>
      <trkpt lat="43.52648" lon="5.32237">
        <ele>210</ele>
        <time>2017-01-25T10:57:46Z</time>
      </trkpt>
      <trkpt lat="43.52647" lon="5.32248">
        <ele>212</ele>
        <time>2017-01-25T10:57:57Z</time>
      </trkpt>
      <trkpt lat="43.5264" lon="5.32255">
        <ele>213</ele>
        <time>2017-01-25T10:58:09Z</time>
      </trkpt>
      <trkpt lat="43.52635" lon="5.32246">
        <ele>209</ele>
        <time>2017-01-25T10:58:34Z</time>
      </trkpt>
      <trkpt lat="43.52629" lon="5.32238">
        <ele>210</ele>
        <time>2017-01-25T10:58:41Z</time>
      </trkpt>
      <trkpt lat="43.52623" lon="5.32233">
        <ele>213</ele>
        <time>2017-01-25T10:59:44Z</time>
      </trkpt>
      <trkpt lat="43.52615" lon="5.32228">
        <ele>211</ele>
        <time>2017-01-25T10:59:52Z</time>
      </trkpt>
      <trkpt lat="43.52607" lon="5.32223">
        <ele>211</ele>
        <time>2017-01-25T11:00:01Z</time>
      </trkpt>
      <trkpt lat="43.52598" lon="5.32224">
        <ele>210</ele>
        <time>2017-01-25T11:00:09Z</time>
      </trkpt>
      <trkpt lat="43.5259" lon="5.32227">
        <ele>211</ele>
        <time>2017-01-25T11:00:16Z</time>
      </trkpt>
      <trkpt lat="43.52582" lon="5.32227">
        <ele>212</ele>
        <time>2017-01-25T11:00:22Z</time>
      </trkpt>
      <trkpt lat="43.52574" lon="5.3223">
        <ele>214</ele>
        <time>2017-01-25T11:00:28Z</time>
      </trkpt>
      <trkpt lat="43.52566" lon="5.32232">
        <ele>214</ele>
        <time>2017-01-25T11:00:35Z</time>
      </trkpt>
      <trkpt lat="43.52558" lon="5.32233">
        <ele>214</ele>
        <time>2017-01-25T11:00:41Z</time>
      </trkpt>
      <trkpt lat="43.52549" lon="5.32236">
        <ele>215</ele>
        <time>2017-01-25T11:00:48Z</time>
      </trkpt>
      <trkpt lat="43.52541" lon="5.32237">
        <ele>215</ele>
        <time>2017-01-25T11:00:55Z</time>
      </trkpt>
      <trkpt lat="43.52534" lon="5.32239">
        <ele>214</ele>
        <time>2017-01-25T11:01:02Z</time>
      </trkpt>
      <trkpt lat="43.52526" lon="5.32241">
        <ele>214</ele>
        <time>2017-01-25T11:01:08Z</time>
      </trkpt>
      <trkpt lat="43.52518" lon="5.32238">
        <ele>215</ele>
        <time>2017-01-25T11:01:15Z</time>
      </trkpt>
      <trkpt lat="43.52511" lon="5.32231">
        <ele>212</ele>
        <time>2017-01-25T11:01:23Z</time>
      </trkpt>
      <trkpt lat="43.52503" lon="5.32228">
        <ele>213</ele>
        <time>2017-01-25T11:01:30Z</time>
      </trkpt>
      <trkpt lat="43.52495" lon="5.32223">
        <ele>212</ele>
        <time>2017-01-25T11:01:38Z</time>
      </trkpt>
      <trkpt lat="43.52487" lon="5.32219">
        <ele>211</ele>
        <time>2017-01-25T11:01:45Z</time>
      </trkpt>
      <trkpt lat="43.5248" lon="5.32214">
        <ele>210</ele>
        <time>2017-01-25T11:01:53Z</time>
      </trkpt>
      <trkpt lat="43.52473" lon="5.32207">
        <ele>213</ele>
        <time>2017-01-25T11:02:00Z</time>
      </trkpt>
      <trkpt lat="43.52466" lon="5.32202">
        <ele>215</ele>
        <time>2017-01-25T11:02:07Z</time>
      </trkpt>
      <trkpt lat="43.52458" lon="5.32198">
        <ele>211</ele>
        <time>2017-01-25T11:02:17Z</time>
      </trkpt>
      <trkpt lat="43.52451" lon="5.32192">
        <ele>210</ele>
        <time>2017-01-25T11:02:26Z</time>
      </trkpt>
      <trkpt lat="43.52444" lon="5.32186">
        <ele>212</ele>
        <time>2017-01-25T11:02:33Z</time>
      </trkpt>
      <trkpt lat="43.52438" lon="5.32178">
        <ele>212</ele>
        <time>2017-01-25T11:02:41Z</time>
      </trkpt>
      <trkpt lat="43.52433" lon="5.32168">
        <ele>212</ele>
        <time>2017-01-25T11:02:50Z</time>
      </trkpt>
      <trkpt lat="43.52429" lon="5.32159">
        <ele>214</ele>
        <time>2017-01-25T11:02:56Z</time>
      </trkpt>
      <trkpt lat="43.52427" lon="5.32147">
        <ele>213</ele>
        <time>2017-01-25T11:03:04Z</time>
      </trkpt>
      <trkpt lat="43.52426" lon="5.32136">
        <ele>213</ele>
        <time>2017-01-25T11:03:13Z</time>
      </trkpt>
      <trkpt lat="43.52426" lon="5.32125">
        <ele>213</ele>
        <time>2017-01-25T11:03:20Z</time>
      </trkpt>
      <trkpt lat="43.52427" lon="5.32114">
        <ele>212</ele>
        <time>2017-01-25T11:03:27Z</time>
      </trkpt>
      <trkpt lat="43.52428" lon="5.32102">
        <ele>212</ele>
        <time>2017-01-25T11:03:34Z</time>
      </trkpt>
      <trkpt lat="43.5243" lon="5.32091">
        <ele>211</ele>
        <time>2017-01-25T11:03:42Z</time>
      </trkpt>
      <trkpt lat="43.5243" lon="5.32081">
        <ele>210</ele>
        <time>2017-01-25T11:03:48Z</time>
      </trkpt>
      <trkpt lat="43.52432" lon="5.32069">
        <ele>210</ele>
        <time>2017-01-25T11:03:56Z</time>
      </trkpt>
      <trkpt lat="43.52433" lon="5.32058">
        <ele>209</ele>
        <time>2017-01-25T11:04:04Z</time>
      </trkpt>
      <trkpt lat="43.52435" lon="5.32047">
        <ele>211</ele>
        <time>2017-01-25T11:04:13Z</time>
      </trkpt>
      <trkpt lat="43.52436" lon="5.32035">
        <ele>209</ele>
        <time>2017-01-25T11:04:20Z</time>
      </trkpt>
      <trkpt lat="43.52438" lon="5.32024">
        <ele>210</ele>
        <time>2017-01-25T11:04:28Z</time>
      </trkpt>
      <trkpt lat="43.52441" lon="5.32014">
        <ele>211</ele>
        <time>2017-01-25T11:04:37Z</time>
      </trkpt>
      <trkpt lat="43.52444" lon="5.32002">
        <ele>207</ele>
        <time>2017-01-25T11:04:46Z</time>
      </trkpt>
      <trkpt lat="43.52446" lon="5.31992">
        <ele>208</ele>
        <time>2017-01-25T11:04:54Z</time>
      </trkpt>
      <trkpt lat="43.52448" lon="5.3198">
        <ele>208</ele>
        <time>2017-01-25T11:05:00Z</time>
      </trkpt>
      <trkpt lat="43.52452" lon="5.3197">
        <ele>209</ele>
        <time>2017-01-25T11:05:10Z</time>
      </trkpt>
      <trkpt lat="43.52455" lon="5.3196">
        <ele>209</ele>
        <time>2017-01-25T11:05:17Z</time>
      </trkpt>
      <trkpt lat="43.52455" lon="5.31949">
        <ele>208</ele>
        <time>2017-01-25T11:05:23Z</time>
      </trkpt>
      <trkpt lat="43.52455" lon="5.31938">
        <ele>211</ele>
        <time>2017-01-25T11:05:29Z</time>
      </trkpt>
      <trkpt lat="43.52453" lon="5.31927">
        <ele>209</ele>
        <time>2017-01-25T11:05:35Z</time>
      </trkpt>
      <trkpt lat="43.52448" lon="5.31917">
        <ele>210</ele>
        <time>2017-01-25T11:05:42Z</time>
      </trkpt>
      <trkpt lat="43.52442" lon="5.31909">
        <ele>210</ele>
        <time>2017-01-25T11:05:47Z</time>
      </trkpt>
      <trkpt lat="43.52436" lon="5.31903">
        <ele>209</ele>
        <time>2017-01-25T11:05:54Z</time>
      </trkpt>
      <trkpt lat="43.52428" lon="5.31898">
        <ele>212</ele>
        <time>2017-01-25T11:06:01Z</time>
      </trkpt>
      <trkpt lat="43.5242" lon="5.31898">
        <ele>213</ele>
        <time>2017-01-25T11:06:07Z</time>
      </trkpt>
      <trkpt lat="43.52411" lon="5.31896">
        <ele>210</ele>
        <time>2017-01-25T11:06:15Z</time>
      </trkpt>
      <trkpt lat="43.52404" lon="5.31889">
        <ele>209</ele>
        <time>2017-01-25T11:06:24Z</time>
      </trkpt>
      <trkpt lat="43.524" lon="5.31879">
        <ele>211</ele>
        <time>2017-01-25T11:06:31Z</time>
      </trkpt>
      <trkpt lat="43.52399" lon="5.31868">
        <ele>211</ele>
        <time>2017-01-25T11:06:40Z</time>
      </trkpt>
      <trkpt lat="43.52401" lon="5.31856">
        <ele>212</ele>
        <time>2017-01-25T11:06:47Z</time>
      </trkpt>
      <trkpt lat="43.52404" lon="5.31846">
        <ele>213</ele>
        <time>2017-01-25T11:06:55Z</time>
      </trkpt>
      <trkpt lat="43.52404" lon="5.31835">
        <ele>214</ele>
        <time>2017-01-25T11:07:01Z</time>
      </trkpt>
      <trkpt lat="43.52403" lon="5.31823">
        <ele>212</ele>
        <time>2017-01-25T11:07:09Z</time>
      </trkpt>
      <trkpt lat="43.52398" lon="5.31813">
        <ele>211</ele>
        <time>2017-01-25T11:07:17Z</time>
      </trkpt>
      <trkpt lat="43.52394" lon="5.31804">
        <ele>210</ele>
        <time>2017-01-25T11:07:24Z</time>
      </trkpt>
      <trkpt lat="43.52388" lon="5.31795">
        <ele>211</ele>
        <time>2017-01-25T11:07:31Z</time>
      </trkpt>
      <trkpt lat="43.52383" lon="5.31786">
        <ele>211</ele>
        <time>2017-01-25T11:07:37Z</time>
      </trkpt>
      <trkpt lat="43.52378" lon="5.31777">
        <ele>211</ele>
        <time>2017-01-25T11:07:45Z</time>
      </trkpt>
      <trkpt lat="43.52372" lon="5.31766">
        <ele>213</ele>
        <time>2017-01-25T11:07:52Z</time>
      </trkpt>
      <trkpt lat="43.52368" lon="5.31757">
        <ele>213</ele>
        <time>2017-01-25T11:07:59Z</time>
      </trkpt>
      <trkpt lat="43.52363" lon="5.31747">
        <ele>210</ele>
        <time>2017-01-25T11:08:09Z</time>
      </trkpt>
      <trkpt lat="43.52359" lon="5.31737">
        <ele>210</ele>
        <time>2017-01-25T11:08:16Z</time>
      </trkpt>
      <trkpt lat="43.52355" lon="5.31727">
        <ele>208</ele>
        <time>2017-01-25T11:08:25Z</time>
      </trkpt>
      <trkpt lat="43.52353" lon="5.31715">
        <ele>212</ele>
        <time>2017-01-25T11:08:43Z</time>
      </trkpt>
      <trkpt lat="43.52353" lon="5.31704">
        <ele>213</ele>
        <time>2017-01-25T11:09:11Z</time>
      </trkpt>
      <trkpt lat="43.52353" lon="5.31692">
        <ele>214</ele>
        <time>2017-01-25T11:09:19Z</time>
      </trkpt>
      <trkpt lat="43.52348" lon="5.31682">
        <ele>215</ele>
        <time>2017-01-25T11:09:31Z</time>
      </trkpt>
      <trkpt lat="43.52342" lon="5.31675">
        <ele>214</ele>
        <time>2017-01-25T11:09:39Z</time>
      </trkpt>
      <trkpt lat="43.52336" lon="5.31667">
        <ele>214</ele>
        <time>2017-01-25T11:09:47Z</time>
      </trkpt>
      <trkpt lat="43.52332" lon="5.31656">
        <ele>218</ele>
        <time>2017-01-25T11:09:57Z</time>
      </trkpt>
      <trkpt lat="43.52327" lon="5.31647">
        <ele>218</ele>
        <time>2017-01-25T11:10:09Z</time>
      </trkpt>
      <trkpt lat="43.52322" lon="5.31638">
        <ele>221</ele>
        <time>2017-01-25T11:10:19Z</time>
      </trkpt>
      <trkpt lat="43.52314" lon="5.31633">
        <ele>225</ele>
        <time>2017-01-25T11:10:28Z</time>
      </trkpt>
      <trkpt lat="43.52306" lon="5.3163">
        <ele>226</ele>
        <time>2017-01-25T11:10:35Z</time>
      </trkpt>
      <trkpt lat="43.52298" lon="5.31626">
        <ele>226</ele>
        <time>2017-01-25T11:10:43Z</time>
      </trkpt>
      <trkpt lat="43.5229" lon="5.31621">
        <ele>225</ele>
        <time>2017-01-25T11:10:51Z</time>
      </trkpt>
      <trkpt lat="43.52283" lon="5.31615">
        <ele>226</ele>
        <time>2017-01-25T11:10:59Z</time>
      </trkpt>
      <trkpt lat="43.52276" lon="5.3161">
        <ele>227</ele>
        <time>2017-01-25T11:11:07Z</time>
      </trkpt>
      <trkpt lat="43.52268" lon="5.31604">
        <ele>226</ele>
        <time>2017-01-25T11:11:15Z</time>
      </trkpt>
      <trkpt lat="43.52261" lon="5.31597">
        <ele>227</ele>
        <time>2017-01-25T11:11:24Z</time>
      </trkpt>
      <trkpt lat="43.52253" lon="5.31593">
        <ele>227</ele>
        <time>2017-01-25T11:11:32Z</time>
      </trkpt>
      <trkpt lat="43.52247" lon="5.31587">
        <ele>227</ele>
        <time>2017-01-25T11:11:39Z</time>
      </trkpt>
      <trkpt lat="43.5224" lon="5.31582">
        <ele>227</ele>
        <time>2017-01-25T11:11:45Z</time>
      </trkpt>
      <trkpt lat="43.52233" lon="5.31576">
        <ele>226</ele>
        <time>2017-01-25T11:11:52Z</time>
      </trkpt>
      <trkpt lat="43.52226" lon="5.3157">
        <ele>227</ele>
        <time>2017-01-25T11:11:59Z</time>
      </trkpt>
      <trkpt lat="43.52219" lon="5.31566">
        <ele>227</ele>
        <time>2017-01-25T11:12:06Z</time>
      </trkpt>
      <trkpt lat="43.52211" lon="5.31562">
        <ele>226</ele>
        <time>2017-01-25T11:12:13Z</time>
      </trkpt>
      <trkpt lat="43.52203" lon="5.31558">
        <ele>225</ele>
        <time>2017-01-25T11:12:20Z</time>
      </trkpt>
      <trkpt lat="43.52196" lon="5.31553">
        <ele>222</ele>
        <time>2017-01-25T11:12:29Z</time>
      </trkpt>
      <trkpt lat="43.5219" lon="5.31545">
        <ele>223</ele>
        <time>2017-01-25T11:12:36Z</time>
      </trkpt>
      <trkpt lat="43.52182" lon="5.31539">
        <ele>223</ele>
        <time>2017-01-25T11:12:44Z</time>
      </trkpt>
      <trkpt lat="43.52174" lon="5.31534">
        <ele>223</ele>
        <time>2017-01-25T11:12:52Z</time>
      </trkpt>
      <trkpt lat="43.52165" lon="5.3153">
        <ele>222</ele>
        <time>2017-01-25T11:13:00Z</time>
      </trkpt>
      <trkpt lat="43.52157" lon="5.31528">
        <ele>222</ele>
        <time>2017-01-25T11:13:08Z</time>
      </trkpt>
      <trkpt lat="43.52149" lon="5.31528">
        <ele>220</ele>
        <time>2017-01-25T11:13:16Z</time>
      </trkpt>
      <trkpt lat="43.5214" lon="5.3153">
        <ele>220</ele>
        <time>2017-01-25T11:13:24Z</time>
      </trkpt>
      <trkpt lat="43.52132" lon="5.31534">
        <ele>219</ele>
        <time>2017-01-25T11:13:31Z</time>
      </trkpt>
      <trkpt lat="43.52124" lon="5.31534">
        <ele>218</ele>
        <time>2017-01-25T11:13:42Z</time>
      </trkpt>
      <trkpt lat="43.52115" lon="5.31532">
        <ele>220</ele>
        <time>2017-01-25T11:13:50Z</time>
      </trkpt>
      <trkpt lat="43.52107" lon="5.3153">
        <ele>220</ele>
        <time>2017-01-25T11:13:57Z</time>
      </trkpt>
      <trkpt lat="43.521" lon="5.31525">
        <ele>219</ele>
        <time>2017-01-25T11:14:05Z</time>
      </trkpt>
      <trkpt lat="43.52091" lon="5.31523">
        <ele>220</ele>
        <time>2017-01-25T11:14:16Z</time>
      </trkpt>
      <trkpt lat="43.52082" lon="5.31521">
        <ele>223</ele>
        <time>2017-01-25T11:14:27Z</time>
      </trkpt>
      <trkpt lat="43.52075" lon="5.31516">
        <ele>222</ele>
        <time>2017-01-25T11:14:37Z</time>
      </trkpt>
      <trkpt lat="43.52067" lon="5.31514">
        <ele>223</ele>
        <time>2017-01-25T11:14:46Z</time>
      </trkpt>
      <trkpt lat="43.52058" lon="5.31511">
        <ele>225</ele>
        <time>2017-01-25T11:14:58Z</time>
      </trkpt>
      <trkpt lat="43.52049" lon="5.3151">
        <ele>225</ele>
        <time>2017-01-25T11:15:10Z</time>
      </trkpt>
      <trkpt lat="43.52042" lon="5.31504">
        <ele>225</ele>
        <time>2017-01-25T11:15:29Z</time>
      </trkpt>
      <trkpt lat="43.52036" lon="5.31495">
        <ele>227</ele>
        <time>2017-01-25T11:15:44Z</time>
      </trkpt>
      <trkpt lat="43.52029" lon="5.31487">
        <ele>230</ele>
        <time>2017-01-25T11:15:58Z</time>
      </trkpt>
      <trkpt lat="43.52025" lon="5.31477">
        <ele>230</ele>
        <time>2017-01-25T11:16:09Z</time>
      </trkpt>
      <trkpt lat="43.52018" lon="5.3147">
        <ele>232</ele>
        <time>2017-01-25T11:16:17Z</time>
      </trkpt>
      <trkpt lat="43.5201" lon="5.31469">
        <ele>233</ele>
        <time>2017-01-25T11:16:26Z</time>
      </trkpt>
      <trkpt lat="43.52006" lon="5.3148">
        <ele>234</ele>
        <time>2017-01-25T11:16:35Z</time>
      </trkpt>
      <trkpt lat="43.52008" lon="5.31491">
        <ele>232</ele>
        <time>2017-01-25T11:16:45Z</time>
      </trkpt>
      <trkpt lat="43.52006" lon="5.3148">
        <ele>233</ele>
        <time>2017-01-25T11:19:16Z</time>
      </trkpt>
      <trkpt lat="43.51999" lon="5.31472">
        <ele>235</ele>
        <time>2017-01-25T11:19:24Z</time>
      </trkpt>
      <trkpt lat="43.51994" lon="5.31463">
        <ele>234</ele>
        <time>2017-01-25T11:19:32Z</time>
      </trkpt>
      <trkpt lat="43.51988" lon="5.31454">
        <ele>234</ele>
        <time>2017-01-25T11:19:40Z</time>
      </trkpt>
      <trkpt lat="43.51979" lon="5.31453">
        <ele>235</ele>
        <time>2017-01-25T11:19:47Z</time>
      </trkpt>
      <trkpt lat="43.51971" lon="5.3145">
        <ele>236</ele>
        <time>2017-01-25T11:19:55Z</time>
      </trkpt>
      <trkpt lat="43.51963" lon="5.31447">
        <ele>237</ele>
        <time>2017-01-25T11:20:02Z</time>
      </trkpt>
      <trkpt lat="43.51956" lon="5.31441">
        <ele>238</ele>
        <time>2017-01-25T11:20:09Z</time>
      </trkpt>
      <trkpt lat="43.51948" lon="5.31435">
        <ele>236</ele>
        <time>2017-01-25T11:20:21Z</time>
      </trkpt>
      <trkpt lat="43.5194" lon="5.31436">
        <ele>236</ele>
        <time>2017-01-25T11:20:33Z</time>
      </trkpt>
      <trkpt lat="43.51931" lon="5.3144">
        <ele>235</ele>
        <time>2017-01-25T11:20:51Z</time>
      </trkpt>
      <trkpt lat="43.51923" lon="5.31442">
        <ele>235</ele>
        <time>2017-01-25T11:20:57Z</time>
      </trkpt>
      <trkpt lat="43.51915" lon="5.31438">
        <ele>237</ele>
        <time>2017-01-25T11:21:04Z</time>
      </trkpt>
      <trkpt lat="43.51907" lon="5.31433">
        <ele>237</ele>
        <time>2017-01-25T11:21:11Z</time>
      </trkpt>
      <trkpt lat="43.519" lon="5.31426">
        <ele>235</ele>
        <time>2017-01-25T11:21:18Z</time>
      </trkpt>
      <trkpt lat="43.51892" lon="5.31424">
        <ele>233</ele>
        <time>2017-01-25T11:21:30Z</time>
      </trkpt>
      <trkpt lat="43.51884" lon="5.31425">
        <ele>232</ele>
        <time>2017-01-25T11:21:40Z</time>
      </trkpt>
      <trkpt lat="43.51878" lon="5.31416">
        <ele>231</ele>
        <time>2017-01-25T11:21:54Z</time>
      </trkpt>
      <trkpt lat="43.51885" lon="5.31407">
        <ele>231</ele>
        <time>2017-01-25T11:24:49Z</time>
      </trkpt>
      <trkpt lat="43.51884" lon="5.31395">
        <ele>231</ele>
        <time>2017-01-25T11:25:17Z</time>
      </trkpt>
      <trkpt lat="43.51876" lon="5.31391">
        <ele>231</ele>
        <time>2017-01-25T11:25:40Z</time>
      </trkpt>
      <trkpt lat="43.5187" lon="5.31384">
        <ele>232</ele>
        <time>2017-01-25T11:25:49Z</time>
      </trkpt>
      <trkpt lat="43.51864" lon="5.31377">
        <ele>232</ele>
        <time>2017-01-25T11:25:58Z</time>
      </trkpt>
      <trkpt lat="43.51857" lon="5.31369">
        <ele>231</ele>
        <time>2017-01-25T11:26:09Z</time>
      </trkpt>
      <trkpt lat="43.51854" lon="5.31358">
        <ele>230</ele>
        <time>2017-01-25T11:26:23Z</time>
      </trkpt>
      <trkpt lat="43.51848" lon="5.3135">
        <ele>229</ele>
        <time>2017-01-25T11:26:35Z</time>
      </trkpt>
      <trkpt lat="43.51849" lon="5.31338">
        <ele>232</ele>
        <time>2017-01-25T11:26:56Z</time>
      </trkpt>
      <trkpt lat="43.5185" lon="5.31326">
        <ele>231</ele>
        <time>2017-01-25T11:27:11Z</time>
      </trkpt>
      <trkpt lat="43.51854" lon="5.31316">
        <ele>232</ele>
        <time>2017-01-25T11:27:21Z</time>
      </trkpt>
      <trkpt lat="43.51858" lon="5.31305">
        <ele>233</ele>
        <time>2017-01-25T11:27:32Z</time>
      </trkpt>
      <trkpt lat="43.51858" lon="5.31293">
        <ele>234</ele>
        <time>2017-01-25T11:27:44Z</time>
      </trkpt>
      <trkpt lat="43.51852" lon="5.31286">
        <ele>232</ele>
        <time>2017-01-25T11:28:02Z</time>
      </trkpt>
      <trkpt lat="43.5185" lon="5.31275">
        <ele>233</ele>
        <time>2017-01-25T11:28:27Z</time>
      </trkpt>
      <trkpt lat="43.51858" lon="5.3127">
        <ele>235</ele>
        <time>2017-01-25T11:28:39Z</time>
      </trkpt>
      <trkpt lat="43.51863" lon="5.3128">
        <ele>234</ele>
        <time>2017-01-25T11:28:55Z</time>
      </trkpt>
      <trkpt lat="43.51864" lon="5.31292">
        <ele>233</ele>
        <time>2017-01-25T11:29:14Z</time>
      </trkpt>
      <trkpt lat="43.51866" lon="5.31304">
        <ele>234</ele>
        <time>2017-01-25T11:29:26Z</time>
      </trkpt>
      <trkpt lat="43.51866" lon="5.31316">
        <ele>234</ele>
        <time>2017-01-25T11:29:38Z</time>
      </trkpt>
      <trkpt lat="43.51866" lon="5.31327">
        <ele>233</ele>
        <time>2017-01-25T11:29:50Z</time>
      </trkpt>
      <trkpt lat="43.51873" lon="5.31334">
        <ele>233</ele>
        <time>2017-01-25T11:30:01Z</time>
      </trkpt>
      <trkpt lat="43.51881" lon="5.31333">
        <ele>234</ele>
        <time>2017-01-25T11:30:08Z</time>
      </trkpt>
      <trkpt lat="43.5189" lon="5.31333">
        <ele>234</ele>
        <time>2017-01-25T11:30:18Z</time>
      </trkpt>
      <trkpt lat="43.51898" lon="5.31334">
        <ele>235</ele>
        <time>2017-01-25T11:30:25Z</time>
      </trkpt>
      <trkpt lat="43.51907" lon="5.31335">
        <ele>236</ele>
        <time>2017-01-25T11:30:31Z</time>
      </trkpt>
      <trkpt lat="43.51915" lon="5.31338">
        <ele>237</ele>
        <time>2017-01-25T11:30:38Z</time>
      </trkpt>
      <trkpt lat="43.51924" lon="5.31341">
        <ele>238</ele>
        <time>2017-01-25T11:30:45Z</time>
      </trkpt>
      <trkpt lat="43.51932" lon="5.31344">
        <ele>239</ele>
        <time>2017-01-25T11:30:52Z</time>
      </trkpt>
      <trkpt lat="43.5194" lon="5.31349">
        <ele>238</ele>
        <time>2017-01-25T11:31:01Z</time>
      </trkpt>
      <trkpt lat="43.51948" lon="5.31352">
        <ele>238</ele>
        <time>2017-01-25T11:31:09Z</time>
      </trkpt>
      <trkpt lat="43.51956" lon="5.31355">
        <ele>239</ele>
        <time>2017-01-25T11:31:16Z</time>
      </trkpt>
      <trkpt lat="43.51963" lon="5.3136">
        <ele>238</ele>
        <time>2017-01-25T11:31:23Z</time>
      </trkpt>
      <trkpt lat="43.5197" lon="5.31367">
        <ele>238</ele>
        <time>2017-01-25T11:31:30Z</time>
      </trkpt>
      <trkpt lat="43.51976" lon="5.31374">
        <ele>238</ele>
        <time>2017-01-25T11:31:37Z</time>
      </trkpt>
      <trkpt lat="43.51983" lon="5.31382">
        <ele>239</ele>
        <time>2017-01-25T11:31:44Z</time>
      </trkpt>
      <trkpt lat="43.51989" lon="5.31389">
        <ele>238</ele>
        <time>2017-01-25T11:31:51Z</time>
      </trkpt>
      <trkpt lat="43.51997" lon="5.31394">
        <ele>237</ele>
        <time>2017-01-25T11:31:59Z</time>
      </trkpt>
      <trkpt lat="43.52004" lon="5.31392">
        <ele>237</ele>
        <time>2017-01-25T11:32:05Z</time>
      </trkpt>
      <trkpt lat="43.5201" lon="5.31382">
        <ele>236</ele>
        <time>2017-01-25T11:32:12Z</time>
      </trkpt>
      <trkpt lat="43.52016" lon="5.31375">
        <ele>234</ele>
        <time>2017-01-25T11:32:19Z</time>
      </trkpt>
      <trkpt lat="43.52024" lon="5.3137">
        <ele>235</ele>
        <time>2017-01-25T11:32:26Z</time>
      </trkpt>
      <trkpt lat="43.52032" lon="5.31365">
        <ele>234</ele>
        <time>2017-01-25T11:32:34Z</time>
      </trkpt>
      <trkpt lat="43.5204" lon="5.31364">
        <ele>234</ele>
        <time>2017-01-25T11:32:41Z</time>
      </trkpt>
      <trkpt lat="43.52048" lon="5.3136">
        <ele>234</ele>
        <time>2017-01-25T11:32:52Z</time>
      </trkpt>
      <trkpt lat="43.52056" lon="5.31359">
        <ele>235</ele>
        <time>2017-01-25T11:33:10Z</time>
      </trkpt>
      <trkpt lat="43.52064" lon="5.31359">
        <ele>236</ele>
        <time>2017-01-25T11:33:20Z</time>
      </trkpt>
      <trkpt lat="43.52073" lon="5.31359">
        <ele>237</ele>
        <time>2017-01-25T11:33:27Z</time>
      </trkpt>
      <trkpt lat="43.52081" lon="5.31358">
        <ele>238</ele>
        <time>2017-01-25T11:33:33Z</time>
      </trkpt>
      <trkpt lat="43.52089" lon="5.3136">
        <ele>239</ele>
        <time>2017-01-25T11:33:40Z</time>
      </trkpt>
      <trkpt lat="43.52097" lon="5.31361">
        <ele>239</ele>
        <time>2017-01-25T11:33:48Z</time>
      </trkpt>
      <trkpt lat="43.52105" lon="5.31364">
        <ele>238</ele>
        <time>2017-01-25T11:33:58Z</time>
      </trkpt>
      <trkpt lat="43.52113" lon="5.31369">
        <ele>238</ele>
        <time>2017-01-25T11:34:06Z</time>
      </trkpt>
      <trkpt lat="43.52122" lon="5.31372">
        <ele>239</ele>
        <time>2017-01-25T11:34:15Z</time>
      </trkpt>
      <trkpt lat="43.5213" lon="5.31371">
        <ele>238</ele>
        <time>2017-01-25T11:34:26Z</time>
      </trkpt>
      <trkpt lat="43.52138" lon="5.31365">
        <ele>236</ele>
        <time>2017-01-25T11:34:36Z</time>
      </trkpt>
      <trkpt lat="43.52145" lon="5.3136">
        <ele>234</ele>
        <time>2017-01-25T11:34:44Z</time>
      </trkpt>
      <trkpt lat="43.52152" lon="5.31357">
        <ele>234</ele>
        <time>2017-01-25T11:34:52Z</time>
      </trkpt>
      <trkpt lat="43.52161" lon="5.31355">
        <ele>235</ele>
        <time>2017-01-25T11:34:59Z</time>
      </trkpt>
      <trkpt lat="43.52169" lon="5.31358">
        <ele>236</ele>
        <time>2017-01-25T11:35:07Z</time>
      </trkpt>
      <trkpt lat="43.52178" lon="5.31359">
        <ele>237</ele>
        <time>2017-01-25T11:35:16Z</time>
      </trkpt>
      <trkpt lat="43.52187" lon="5.3136">
        <ele>239</ele>
        <time>2017-01-25T11:35:24Z</time>
      </trkpt>
      <trkpt lat="43.52196" lon="5.31358">
        <ele>239</ele>
        <time>2017-01-25T11:35:33Z</time>
      </trkpt>
      <trkpt lat="43.52204" lon="5.31354">
        <ele>239</ele>
        <time>2017-01-25T11:35:40Z</time>
      </trkpt>
      <trkpt lat="43.52212" lon="5.31352">
        <ele>241</ele>
        <time>2017-01-25T11:35:47Z</time>
      </trkpt>
      <trkpt lat="43.52221" lon="5.31354">
        <ele>235</ele>
        <time>2017-01-25T11:36:10Z</time>
      </trkpt>
      <trkpt lat="43.52229" lon="5.3135">
        <ele>236</ele>
        <time>2017-01-25T11:36:16Z</time>
      </trkpt>
      <trkpt lat="43.52237" lon="5.31348">
        <ele>236</ele>
        <time>2017-01-25T11:36:23Z</time>
      </trkpt>
      <trkpt lat="43.52245" lon="5.31345">
        <ele>238</ele>
        <time>2017-01-25T11:36:30Z</time>
      </trkpt>
      <trkpt lat="43.52252" lon="5.31343">
        <ele>237</ele>
        <time>2017-01-25T11:36:37Z</time>
      </trkpt>
      <trkpt lat="43.5226" lon="5.31341">
        <ele>238</ele>
        <time>2017-01-25T11:36:43Z</time>
      </trkpt>
      <trkpt lat="43.52268" lon="5.31342">
        <ele>239</ele>
        <time>2017-01-25T11:36:49Z</time>
      </trkpt>
      <trkpt lat="43.52277" lon="5.31343">
        <ele>239</ele>
        <time>2017-01-25T11:36:56Z</time>
      </trkpt>
      <trkpt lat="43.52284" lon="5.31345">
        <ele>240</ele>
        <time>2017-01-25T11:37:02Z</time>
      </trkpt>
      <trkpt lat="43.52292" lon="5.31345">
        <ele>240</ele>
        <time>2017-01-25T11:37:09Z</time>
      </trkpt>
      <trkpt lat="43.52301" lon="5.31345">
        <ele>239</ele>
        <time>2017-01-25T11:37:17Z</time>
      </trkpt>
      <trkpt lat="43.52309" lon="5.31347">
        <ele>239</ele>
        <time>2017-01-25T11:37:24Z</time>
      </trkpt>
      <trkpt lat="43.52317" lon="5.31352">
        <ele>239</ele>
        <time>2017-01-25T11:37:31Z</time>
      </trkpt>
      <trkpt lat="43.52325" lon="5.31352">
        <ele>237</ele>
        <time>2017-01-25T11:37:38Z</time>
      </trkpt>
      <trkpt lat="43.52333" lon="5.31352">
        <ele>238</ele>
        <time>2017-01-25T11:37:49Z</time>
      </trkpt>
      <trkpt lat="43.52341" lon="5.31354">
        <ele>238</ele>
        <time>2017-01-25T11:37:56Z</time>
      </trkpt>
      <trkpt lat="43.5235" lon="5.31355">
        <ele>239</ele>
        <time>2017-01-25T11:38:03Z</time>
      </trkpt>
      <trkpt lat="43.52358" lon="5.31356">
        <ele>241</ele>
        <time>2017-01-25T11:38:10Z</time>
      </trkpt>
      <trkpt lat="43.52367" lon="5.31359">
        <ele>240</ele>
        <time>2017-01-25T11:38:18Z</time>
      </trkpt>
      <trkpt lat="43.52375" lon="5.3136">
        <ele>241</ele>
        <time>2017-01-25T11:38:29Z</time>
      </trkpt>
      <trkpt lat="43.52384" lon="5.31359">
        <ele>242</ele>
        <time>2017-01-25T11:38:39Z</time>
      </trkpt>
      <trkpt lat="43.52393" lon="5.31357">
        <ele>244</ele>
        <time>2017-01-25T11:38:48Z</time>
      </trkpt>
      <trkpt lat="43.52401" lon="5.31359">
        <ele>242</ele>
        <time>2017-01-25T11:38:59Z</time>
      </trkpt>
      <trkpt lat="43.5241" lon="5.31358">
        <ele>244</ele>
        <time>2017-01-25T11:39:08Z</time>
      </trkpt>
      <trkpt lat="43.52418" lon="5.31361">
        <ele>245</ele>
        <time>2017-01-25T11:39:18Z</time>
      </trkpt>
      <trkpt lat="43.52425" lon="5.31368">
        <ele>248</ele>
        <time>2017-01-25T11:39:45Z</time>
      </trkpt>
      <trkpt lat="43.52431" lon="5.31376">
        <ele>249</ele>
        <time>2017-01-25T11:39:52Z</time>
      </trkpt>
      <trkpt lat="43.52438" lon="5.31381">
        <ele>250</ele>
        <time>2017-01-25T11:40:00Z</time>
      </trkpt>
      <trkpt lat="43.52445" lon="5.31389">
        <ele>249</ele>
        <time>2017-01-25T11:40:12Z</time>
      </trkpt>
      <trkpt lat="43.52453" lon="5.31394">
        <ele>250</ele>
        <time>2017-01-25T11:40:19Z</time>
      </trkpt>
      <trkpt lat="43.52464" lon="5.31399">
        <ele>253</ele>
        <time>2017-01-25T11:40:24Z</time>
      </trkpt>
      <trkpt lat="43.5247" lon="5.31402">
        <ele>250</ele>
        <time>2017-01-25T11:40:34Z</time>
      </trkpt>
      <trkpt lat="43.52478" lon="5.31405">
        <ele>250</ele>
        <time>2017-01-25T11:40:39Z</time>
      </trkpt>
      <trkpt lat="43.52486" lon="5.31403">
        <ele>252</ele>
        <time>2017-01-25T11:40:46Z</time>
      </trkpt>
      <trkpt lat="43.52494" lon="5.31402">
        <ele>251</ele>
        <time>2017-01-25T11:40:55Z</time>
      </trkpt>
      <trkpt lat="43.52503" lon="5.31399">
        <ele>251</ele>
        <time>2017-01-25T11:41:02Z</time>
      </trkpt>
      <trkpt lat="43.5251" lon="5.31395">
        <ele>252</ele>
        <time>2017-01-25T11:41:09Z</time>
      </trkpt>
      <trkpt lat="43.52519" lon="5.31392">
        <ele>252</ele>
        <time>2017-01-25T11:41:16Z</time>
      </trkpt>
      <trkpt lat="43.52528" lon="5.3139">
        <ele>252</ele>
        <time>2017-01-25T11:41:24Z</time>
      </trkpt>
      <trkpt lat="43.52536" lon="5.31387">
        <ele>251</ele>
        <time>2017-01-25T11:41:31Z</time>
      </trkpt>
      <trkpt lat="43.52544" lon="5.31386">
        <ele>252</ele>
        <time>2017-01-25T11:41:38Z</time>
      </trkpt>
      <trkpt lat="43.52553" lon="5.31385">
        <ele>252</ele>
        <time>2017-01-25T11:41:46Z</time>
      </trkpt>
      <trkpt lat="43.52561" lon="5.31383">
        <ele>254</ele>
        <time>2017-01-25T11:41:53Z</time>
      </trkpt>
      <trkpt lat="43.52569" lon="5.31381">
        <ele>255</ele>
        <time>2017-01-25T11:42:00Z</time>
      </trkpt>
      <trkpt lat="43.52577" lon="5.3138">
        <ele>255</ele>
        <time>2017-01-25T11:42:07Z</time>
      </trkpt>
      <trkpt lat="43.52586" lon="5.31377">
        <ele>256</ele>
        <time>2017-01-25T11:42:14Z</time>
      </trkpt>
      <trkpt lat="43.52594" lon="5.31374">
        <ele>257</ele>
        <time>2017-01-25T11:42:21Z</time>
      </trkpt>
      <trkpt lat="43.52602" lon="5.31371">
        <ele>257</ele>
        <time>2017-01-25T11:42:28Z</time>
      </trkpt>
      <trkpt lat="43.52611" lon="5.31369">
        <ele>257</ele>
        <time>2017-01-25T11:42:35Z</time>
      </trkpt>
      <trkpt lat="43.52619" lon="5.31365">
        <ele>258</ele>
        <time>2017-01-25T11:42:43Z</time>
      </trkpt>
      <trkpt lat="43.52628" lon="5.31365">
        <ele>257</ele>
        <time>2017-01-25T11:42:50Z</time>
      </trkpt>
      <trkpt lat="43.52636" lon="5.31362">
        <ele>259</ele>
        <time>2017-01-25T11:42:57Z</time>
      </trkpt>
      <trkpt lat="43.52643" lon="5.3136">
        <ele>259</ele>
        <time>2017-01-25T11:43:02Z</time>
      </trkpt>
      <trkpt lat="43.52652" lon="5.31357">
        <ele>257</ele>
        <time>2017-01-25T11:43:11Z</time>
      </trkpt>
      <trkpt lat="43.5266" lon="5.31354">
        <ele>258</ele>
        <time>2017-01-25T11:43:19Z</time>
      </trkpt>
      <trkpt lat="43.52668" lon="5.31351">
        <ele>258</ele>
        <time>2017-01-25T11:43:27Z</time>
      </trkpt>
      <trkpt lat="43.52675" lon="5.31347">
        <ele>258</ele>
        <time>2017-01-25T11:43:34Z</time>
      </trkpt>
      <trkpt lat="43.52682" lon="5.31345">
        <ele>258</ele>
        <time>2017-01-25T11:43:41Z</time>
      </trkpt>
      <trkpt lat="43.52691" lon="5.31344">
        <ele>257</ele>
        <time>2017-01-25T11:43:47Z</time>
      </trkpt>
      <trkpt lat="43.527" lon="5.31342">
        <ele>258</ele>
        <time>2017-01-25T11:43:53Z</time>
      </trkpt>
      <trkpt lat="43.52708" lon="5.31338">
        <ele>256</ele>
        <time>2017-01-25T11:44:01Z</time>
      </trkpt>
      <trkpt lat="43.52715" lon="5.31335">
        <ele>256</ele>
        <time>2017-01-25T11:44:08Z</time>
      </trkpt>
      <trkpt lat="43.52723" lon="5.31332">
        <ele>255</ele>
        <time>2017-01-25T11:44:14Z</time>
      </trkpt>
      <trkpt lat="43.52731" lon="5.31329">
        <ele>257</ele>
        <time>2017-01-25T11:44:20Z</time>
      </trkpt>
      <trkpt lat="43.52738" lon="5.31326">
        <ele>256</ele>
        <time>2017-01-25T11:44:27Z</time>
      </trkpt>
      <trkpt lat="43.52746" lon="5.31324">
        <ele>258</ele>
        <time>2017-01-25T11:44:33Z</time>
      </trkpt>
      <trkpt lat="43.52755" lon="5.31324">
        <ele>259</ele>
        <time>2017-01-25T11:44:39Z</time>
      </trkpt>
      <trkpt lat="43.52763" lon="5.31324">
        <ele>259</ele>
        <time>2017-01-25T11:44:46Z</time>
      </trkpt>
      <trkpt lat="43.52771" lon="5.31325">
        <ele>259</ele>
        <time>2017-01-25T11:44:55Z</time>
      </trkpt>
      <trkpt lat="43.5278" lon="5.31324">
        <ele>260</ele>
        <time>2017-01-25T11:45:03Z</time>
      </trkpt>
      <trkpt lat="43.52788" lon="5.31322">
        <ele>260</ele>
        <time>2017-01-25T11:45:09Z</time>
      </trkpt>
      <trkpt lat="43.52796" lon="5.31322">
        <ele>259</ele>
        <time>2017-01-25T11:45:15Z</time>
      </trkpt>
      <trkpt lat="43.52805" lon="5.31321">
        <ele>260</ele>
        <time>2017-01-25T11:45:22Z</time>
      </trkpt>
      <trkpt lat="43.52813" lon="5.31318">
        <ele>258</ele>
        <time>2017-01-25T11:45:30Z</time>
      </trkpt>
      <trkpt lat="43.52821" lon="5.31317">
        <ele>258</ele>
        <time>2017-01-25T11:45:37Z</time>
      </trkpt>
      <trkpt lat="43.52829" lon="5.31314">
        <ele>260</ele>
        <time>2017-01-25T11:45:44Z</time>
      </trkpt>
      <trkpt lat="43.52837" lon="5.31309">
        <ele>259</ele>
        <time>2017-01-25T11:45:51Z</time>
      </trkpt>
      <trkpt lat="43.52846" lon="5.31308">
        <ele>258</ele>
        <time>2017-01-25T11:45:58Z</time>
      </trkpt>
      <trkpt lat="43.52854" lon="5.31308">
        <ele>258</ele>
        <time>2017-01-25T11:46:05Z</time>
      </trkpt>
      <trkpt lat="43.52863" lon="5.31307">
        <ele>256</ele>
        <time>2017-01-25T11:46:15Z</time>
      </trkpt>
      <trkpt lat="43.52871" lon="5.31306">
        <ele>254</ele>
        <time>2017-01-25T11:46:26Z</time>
      </trkpt>
      <trkpt lat="43.52879" lon="5.31305">
        <ele>254</ele>
        <time>2017-01-25T11:46:36Z</time>
      </trkpt>
      <trkpt lat="43.52888" lon="5.31306">
        <ele>250</ele>
        <time>2017-01-25T11:46:45Z</time>
      </trkpt>
      <trkpt lat="43.52895" lon="5.31308">
        <ele>252</ele>
        <time>2017-01-25T11:46:52Z</time>
      </trkpt>
      <trkpt lat="43.52903" lon="5.31304">
        <ele>252</ele>
        <time>2017-01-25T11:47:02Z</time>
      </trkpt>
      <trkpt lat="43.52909" lon="5.31297">
        <ele>253</ele>
        <time>2017-01-25T11:47:11Z</time>
      </trkpt>
      <trkpt lat="43.52916" lon="5.31292">
        <ele>253</ele>
        <time>2017-01-25T11:47:19Z</time>
      </trkpt>
      <trkpt lat="43.52922" lon="5.31301">
        <ele>251</ele>
        <time>2017-01-25T12:00:27Z</time>
      </trkpt>
      <trkpt lat="43.52931" lon="5.31304">
        <ele>250</ele>
        <time>2017-01-25T12:00:54Z</time>
      </trkpt>
      <trkpt lat="43.52939" lon="5.313">
        <ele>253</ele>
        <time>2017-01-25T12:01:24Z</time>
      </trkpt>
      <trkpt lat="43.52942" lon="5.31311">
        <ele>250</ele>
        <time>2017-01-25T12:02:06Z</time>
      </trkpt>
      <trkpt lat="43.52936" lon="5.31318">
        <ele>250</ele>
        <time>2017-01-25T12:02:22Z</time>
      </trkpt>
      <trkpt lat="43.52927" lon="5.31317">
        <ele>248</ele>
        <time>2017-01-25T12:02:32Z</time>
      </trkpt>
      <trkpt lat="43.52921" lon="5.31309">
        <ele>248</ele>
        <time>2017-01-25T12:02:47Z</time>
      </trkpt>
      <trkpt lat="43.52918" lon="5.31297">
        <ele>249</ele>
        <time>2017-01-25T12:03:03Z</time>
      </trkpt>
      <trkpt lat="43.52923" lon="5.31288">
        <ele>248</ele>
        <time>2017-01-25T12:14:55Z</time>
      </trkpt>
      <trkpt lat="43.5293" lon="5.3128">
        <ele>248</ele>
        <time>2017-01-25T12:16:04Z</time>
      </trkpt>
      <trkpt lat="43.52937" lon="5.31273">
        <ele>247</ele>
        <time>2017-01-25T12:17:09Z</time>
      </trkpt>
      <trkpt lat="43.52944" lon="5.31265">
        <ele>252</ele>
        <time>2017-01-25T12:17:32Z</time>
      </trkpt>
      <trkpt lat="43.52952" lon="5.3126">
        <ele>249</ele>
        <time>2017-01-25T12:18:20Z</time>
      </trkpt>
      <trkpt lat="43.5296" lon="5.31255">
        <ele>248</ele>
        <time>2017-01-25T12:18:34Z</time>
      </trkpt>
      <trkpt lat="43.52968" lon="5.31252">
        <ele>246</ele>
        <time>2017-01-25T12:18:43Z</time>
      </trkpt>
      <trkpt lat="43.52976" lon="5.31247">
        <ele>248</ele>
        <time>2017-01-25T12:18:52Z</time>
      </trkpt>
      <trkpt lat="43.52981" lon="5.31239">
        <ele>247</ele>
        <time>2017-01-25T12:19:00Z</time>
      </trkpt>
      <trkpt lat="43.52988" lon="5.31233">
        <ele>252</ele>
        <time>2017-01-25T12:19:06Z</time>
      </trkpt>
      <trkpt lat="43.52994" lon="5.31226">
        <ele>243</ele>
        <time>2017-01-25T12:19:17Z</time>
      </trkpt>
      <trkpt lat="43.53" lon="5.31217">
        <ele>243</ele>
        <time>2017-01-25T12:19:25Z</time>
      </trkpt>
      <trkpt lat="43.53005" lon="5.31209">
        <ele>244</ele>
        <time>2017-01-25T12:19:35Z</time>
      </trkpt>
      <trkpt lat="43.53013" lon="5.31203">
        <ele>244</ele>
        <time>2017-01-25T12:19:52Z</time>
      </trkpt>
      <trkpt lat="43.53021" lon="5.31199">
        <ele>244</ele>
        <time>2017-01-25T12:19:57Z</time>
      </trkpt>
      <trkpt lat="43.53028" lon="5.31196">
        <ele>241</ele>
        <time>2017-01-25T12:20:05Z</time>
      </trkpt>
      <trkpt lat="43.53036" lon="5.31191">
        <ele>241</ele>
        <time>2017-01-25T12:20:11Z</time>
      </trkpt>
      <trkpt lat="43.53044" lon="5.31185">
        <ele>240</ele>
        <time>2017-01-25T12:20:19Z</time>
      </trkpt>
      <trkpt lat="43.53052" lon="5.31187">
        <ele>240</ele>
        <time>2017-01-25T12:21:07Z</time>
      </trkpt>
      <trkpt lat="43.53059" lon="5.31182">
        <ele>236</ele>
        <time>2017-01-25T12:21:23Z</time>
      </trkpt>
      <trkpt lat="43.53066" lon="5.31175">
        <ele>236</ele>
        <time>2017-01-25T12:21:31Z</time>
      </trkpt>
      <trkpt lat="43.53069" lon="5.31166">
        <ele>235</ele>
        <time>2017-01-25T12:21:38Z</time>
      </trkpt>
      <trkpt lat="43.53067" lon="5.31155">
        <ele>238</ele>
        <time>2017-01-25T12:21:44Z</time>
      </trkpt>
      <trkpt lat="43.53066" lon="5.31145">
        <ele>239</ele>
        <time>2017-01-25T12:21:53Z</time>
      </trkpt>
      <trkpt lat="43.53063" lon="5.31133">
        <ele>240</ele>
        <time>2017-01-25T12:22:00Z</time>
      </trkpt>
      <trkpt lat="43.53061" lon="5.31122">
        <ele>239</ele>
        <time>2017-01-25T12:22:07Z</time>
      </trkpt>
      <trkpt lat="43.53058" lon="5.31112">
        <ele>239</ele>
        <time>2017-01-25T12:22:14Z</time>
      </trkpt>
      <trkpt lat="43.53057" lon="5.3111">
        <ele>239</ele>
        <time>2017-01-25T12:22:15Z</time>
      </trkpt>
      <trkpt lat="43.53046" lon="5.31062">
        <ele>249</ele>
        <time>2017-01-25T12:22:41Z</time>
      </trkpt>
      <trkpt lat="43.53054" lon="5.31065">
        <ele>245</ele>
        <time>2017-01-25T12:22:46Z</time>
      </trkpt>
      <trkpt lat="43.53065" lon="5.31067">
        <ele>246</ele>
        <time>2017-01-25T12:22:50Z</time>
      </trkpt>
      <trkpt lat="43.53068" lon="5.31069">
        <ele>246</ele>
        <time>2017-01-25T12:22:51Z</time>
      </trkpt>
      <trkpt lat="43.53034" lon="5.31014">
        <ele>250</ele>
        <time>2017-01-25T12:23:13Z</time>
      </trkpt>
      <trkpt lat="43.53046" lon="5.31025">
        <ele>230</ele>
        <time>2017-01-25T12:23:18Z</time>
      </trkpt>
      <trkpt lat="43.53042" lon="5.3101">
        <ele>239</ele>
        <time>2017-01-25T12:23:22Z</time>
      </trkpt>
      <trkpt lat="43.5304" lon="5.31001">
        <ele>238</ele>
        <time>2017-01-25T12:23:32Z</time>
      </trkpt>
      <trkpt lat="43.53039" lon="5.30993">
        <ele>240</ele>
        <time>2017-01-25T12:23:38Z</time>
      </trkpt>
      <trkpt lat="43.53037" lon="5.30982">
        <ele>239</ele>
        <time>2017-01-25T12:23:47Z</time>
      </trkpt>
      <trkpt lat="43.53037" lon="5.3097">
        <ele>236</ele>
        <time>2017-01-25T12:23:56Z</time>
      </trkpt>
      <trkpt lat="43.5304" lon="5.3096">
        <ele>230</ele>
        <time>2017-01-25T12:24:03Z</time>
      </trkpt>
      <trkpt lat="43.53041" lon="5.30949">
        <ele>232</ele>
        <time>2017-01-25T12:24:09Z</time>
      </trkpt>
      <trkpt lat="43.53044" lon="5.30937">
        <ele>233</ele>
        <time>2017-01-25T12:24:18Z</time>
      </trkpt>
      <trkpt lat="43.53046" lon="5.30926">
        <ele>237</ele>
        <time>2017-01-25T12:24:25Z</time>
      </trkpt>
      <trkpt lat="43.53049" lon="5.30915">
        <ele>237</ele>
        <time>2017-01-25T12:24:33Z</time>
      </trkpt>
      <trkpt lat="43.5305" lon="5.30904">
        <ele>236</ele>
        <time>2017-01-25T12:24:42Z</time>
      </trkpt>
      <trkpt lat="43.53053" lon="5.30895">
        <ele>237</ele>
        <time>2017-01-25T12:24:48Z</time>
      </trkpt>
      <trkpt lat="43.53054" lon="5.30884">
        <ele>238</ele>
        <time>2017-01-25T12:24:53Z</time>
      </trkpt>
      <trkpt lat="43.53052" lon="5.30873">
        <ele>234</ele>
        <time>2017-01-25T12:25:01Z</time>
      </trkpt>
      <trkpt lat="43.53049" lon="5.30862">
        <ele>233</ele>
        <time>2017-01-25T12:25:07Z</time>
      </trkpt>
      <trkpt lat="43.53046" lon="5.30852">
        <ele>233</ele>
        <time>2017-01-25T12:25:15Z</time>
      </trkpt>
      <trkpt lat="43.53041" lon="5.30843">
        <ele>233</ele>
        <time>2017-01-25T12:25:23Z</time>
      </trkpt>
      <trkpt lat="43.53035" lon="5.30834">
        <ele>233</ele>
        <time>2017-01-25T12:25:30Z</time>
      </trkpt>
      <trkpt lat="43.5303" lon="5.30825">
        <ele>233</ele>
        <time>2017-01-25T12:25:36Z</time>
      </trkpt>
      <trkpt lat="43.53024" lon="5.30817">
        <ele>233</ele>
        <time>2017-01-25T12:25:44Z</time>
      </trkpt>
      <trkpt lat="43.53018" lon="5.30808">
        <ele>230</ele>
        <time>2017-01-25T12:25:53Z</time>
      </trkpt>
      <trkpt lat="43.53012" lon="5.308">
        <ele>229</ele>
        <time>2017-01-25T12:26:03Z</time>
      </trkpt>
      <trkpt lat="43.53008" lon="5.3079">
        <ele>228</ele>
        <time>2017-01-25T12:26:11Z</time>
      </trkpt>
      <trkpt lat="43.53005" lon="5.3078">
        <ele>230</ele>
        <time>2017-01-25T12:26:19Z</time>
      </trkpt>
      <trkpt lat="43.52997" lon="5.30774">
        <ele>232</ele>
        <time>2017-01-25T12:26:31Z</time>
      </trkpt>
      <trkpt lat="43.52988" lon="5.30771">
        <ele>232</ele>
        <time>2017-01-25T12:26:42Z</time>
      </trkpt>
      <trkpt lat="43.5298" lon="5.3077">
        <ele>231</ele>
        <time>2017-01-25T12:26:50Z</time>
      </trkpt>
      <trkpt lat="43.52971" lon="5.3077">
        <ele>230</ele>
        <time>2017-01-25T12:26:56Z</time>
      </trkpt>
      <trkpt lat="43.52963" lon="5.30769">
        <ele>229</ele>
        <time>2017-01-25T12:27:01Z</time>
      </trkpt>
      <trkpt lat="43.52955" lon="5.30768">
        <ele>229</ele>
        <time>2017-01-25T12:27:07Z</time>
      </trkpt>
      <trkpt lat="43.52947" lon="5.30764">
        <ele>231</ele>
        <time>2017-01-25T12:27:20Z</time>
      </trkpt>
      <trkpt lat="43.52942" lon="5.30754">
        <ele>242</ele>
        <time>2017-01-25T12:27:30Z</time>
      </trkpt>
      <trkpt lat="43.52945" lon="5.30742">
        <ele>244</ele>
        <time>2017-01-25T12:27:42Z</time>
      </trkpt>
      <trkpt lat="43.5295" lon="5.30733">
        <ele>247</ele>
        <time>2017-01-25T12:27:52Z</time>
      </trkpt>
      <trkpt lat="43.52956" lon="5.30725">
        <ele>246</ele>
        <time>2017-01-25T12:28:00Z</time>
      </trkpt>
      <trkpt lat="43.52962" lon="5.30716">
        <ele>247</ele>
        <time>2017-01-25T12:28:09Z</time>
      </trkpt>
      <trkpt lat="43.52966" lon="5.30705">
        <ele>247</ele>
        <time>2017-01-25T12:28:18Z</time>
      </trkpt>
      <trkpt lat="43.52971" lon="5.30696">
        <ele>250</ele>
        <time>2017-01-25T12:28:27Z</time>
      </trkpt>
      <trkpt lat="43.52977" lon="5.30687">
        <ele>249</ele>
        <time>2017-01-25T12:28:38Z</time>
      </trkpt>
      <trkpt lat="43.52984" lon="5.3068">
        <ele>251</ele>
        <time>2017-01-25T12:28:47Z</time>
      </trkpt>
      <trkpt lat="43.52989" lon="5.30672">
        <ele>251</ele>
        <time>2017-01-25T12:28:55Z</time>
      </trkpt>
      <trkpt lat="43.52995" lon="5.30663">
        <ele>253</ele>
        <time>2017-01-25T12:29:04Z</time>
      </trkpt>
      <trkpt lat="43.52999" lon="5.30652">
        <ele>252</ele>
        <time>2017-01-25T12:29:15Z</time>
      </trkpt>
      <trkpt lat="43.53" lon="5.3064">
        <ele>254</ele>
        <time>2017-01-25T12:29:23Z</time>
      </trkpt>
      <trkpt lat="43.53001" lon="5.30628">
        <ele>256</ele>
        <time>2017-01-25T12:29:32Z</time>
      </trkpt>
      <trkpt lat="43.53006" lon="5.30618">
        <ele>257</ele>
        <time>2017-01-25T12:29:40Z</time>
      </trkpt>
      <trkpt lat="43.53012" lon="5.3061">
        <ele>258</ele>
        <time>2017-01-25T12:29:49Z</time>
      </trkpt>
      <trkpt lat="43.53015" lon="5.30599">
        <ele>259</ele>
        <time>2017-01-25T12:29:58Z</time>
      </trkpt>
      <trkpt lat="43.5302" lon="5.3059">
        <ele>259</ele>
        <time>2017-01-25T12:30:05Z</time>
      </trkpt>
      <trkpt lat="43.53024" lon="5.30584">
        <ele>260</ele>
        <time>2017-01-25T12:30:10Z</time>
      </trkpt>
      <trkpt lat="43.53031" lon="5.30577">
        <ele>259</ele>
        <time>2017-01-25T12:30:14Z</time>
      </trkpt>
      <trkpt lat="43.53035" lon="5.30568">
        <ele>258</ele>
        <time>2017-01-25T12:30:22Z</time>
      </trkpt>
      <trkpt lat="43.53041" lon="5.30562">
        <ele>258</ele>
        <time>2017-01-25T12:30:28Z</time>
      </trkpt>
      <trkpt lat="43.53044" lon="5.30551">
        <ele>256</ele>
        <time>2017-01-25T12:30:37Z</time>
      </trkpt>
      <trkpt lat="43.53049" lon="5.30542">
        <ele>258</ele>
        <time>2017-01-25T12:30:45Z</time>
      </trkpt>
      <trkpt lat="43.53054" lon="5.30533">
        <ele>259</ele>
        <time>2017-01-25T12:30:52Z</time>
      </trkpt>
      <trkpt lat="43.53059" lon="5.30523">
        <ele>259</ele>
        <time>2017-01-25T12:31:00Z</time>
      </trkpt>
      <trkpt lat="43.53065" lon="5.30516">
        <ele>260</ele>
        <time>2017-01-25T12:31:07Z</time>
      </trkpt>
      <trkpt lat="43.53072" lon="5.30509">
        <ele>260</ele>
        <time>2017-01-25T12:31:13Z</time>
      </trkpt>
      <trkpt lat="43.53075" lon="5.30498">
        <ele>262</ele>
        <time>2017-01-25T12:31:21Z</time>
      </trkpt>
      <trkpt lat="43.53075" lon="5.30486">
        <ele>264</ele>
        <time>2017-01-25T12:31:31Z</time>
      </trkpt>
      <trkpt lat="43.53079" lon="5.30475">
        <ele>266</ele>
        <time>2017-01-25T12:31:39Z</time>
      </trkpt>
      <trkpt lat="43.53083" lon="5.30465">
        <ele>264</ele>
        <time>2017-01-25T12:31:46Z</time>
      </trkpt>
      <trkpt lat="43.53085" lon="5.30454">
        <ele>264</ele>
        <time>2017-01-25T12:31:53Z</time>
      </trkpt>
      <trkpt lat="43.53085" lon="5.30442">
        <ele>266</ele>
        <time>2017-01-25T12:32:01Z</time>
      </trkpt>
      <trkpt lat="43.53084" lon="5.3043">
        <ele>267</ele>
        <time>2017-01-25T12:32:09Z</time>
      </trkpt>
      <trkpt lat="43.53083" lon="5.30418">
        <ele>266</ele>
        <time>2017-01-25T12:32:18Z</time>
      </trkpt>
      <trkpt lat="43.53085" lon="5.30406">
        <ele>267</ele>
        <time>2017-01-25T12:32:27Z</time>
      </trkpt>
      <trkpt lat="43.53091" lon="5.30398">
        <ele>267</ele>
        <time>2017-01-25T12:32:39Z</time>
      </trkpt>
      <trkpt lat="43.53096" lon="5.30389">
        <ele>268</ele>
        <time>2017-01-25T12:32:47Z</time>
      </trkpt>
      <trkpt lat="43.53102" lon="5.30379">
        <ele>268</ele>
        <time>2017-01-25T12:32:56Z</time>
      </trkpt>
      <trkpt lat="43.53106" lon="5.30369">
        <ele>267</ele>
        <time>2017-01-25T12:33:04Z</time>
      </trkpt>
      <trkpt lat="43.53109" lon="5.30358">
        <ele>269</ele>
        <time>2017-01-25T12:33:12Z</time>
      </trkpt>
      <trkpt lat="43.53115" lon="5.3035">
        <ele>268</ele>
        <time>2017-01-25T12:33:20Z</time>
      </trkpt>
      <trkpt lat="43.53121" lon="5.30341">
        <ele>269</ele>
        <time>2017-01-25T12:33:28Z</time>
      </trkpt>
      <trkpt lat="43.53126" lon="5.3033">
        <ele>270</ele>
        <time>2017-01-25T12:33:35Z</time>
      </trkpt>
      <trkpt lat="43.5313" lon="5.30319">
        <ele>272</ele>
        <time>2017-01-25T12:33:42Z</time>
      </trkpt>
      <trkpt lat="43.53134" lon="5.30311">
        <ele>272</ele>
        <time>2017-01-25T12:33:50Z</time>
      </trkpt>
      <trkpt lat="43.5314" lon="5.30303">
        <ele>272</ele>
        <time>2017-01-25T12:33:58Z</time>
      </trkpt>
      <trkpt lat="43.53145" lon="5.30293">
        <ele>273</ele>
        <time>2017-01-25T12:34:06Z</time>
      </trkpt>
      <trkpt lat="43.53146" lon="5.30282">
        <ele>274</ele>
        <time>2017-01-25T12:34:14Z</time>
      </trkpt>
      <trkpt lat="43.53147" lon="5.30271">
        <ele>272</ele>
        <time>2017-01-25T12:34:23Z</time>
      </trkpt>
      <trkpt lat="43.53151" lon="5.30261">
        <ele>274</ele>
        <time>2017-01-25T12:34:30Z</time>
      </trkpt>
      <trkpt lat="43.53153" lon="5.30249">
        <ele>276</ele>
        <time>2017-01-25T12:34:40Z</time>
      </trkpt>
      <trkpt lat="43.53156" lon="5.30239">
        <ele>277</ele>
        <time>2017-01-25T12:34:48Z</time>
      </trkpt>
      <trkpt lat="43.53161" lon="5.3023">
        <ele>279</ele>
        <time>2017-01-25T12:34:55Z</time>
      </trkpt>
      <trkpt lat="43.53165" lon="5.30219">
        <ele>278</ele>
        <time>2017-01-25T12:35:02Z</time>
      </trkpt>
      <trkpt lat="43.53169" lon="5.30208">
        <ele>279</ele>
        <time>2017-01-25T12:35:08Z</time>
      </trkpt>
      <trkpt lat="43.5317" lon="5.30196">
        <ele>278</ele>
        <time>2017-01-25T12:35:17Z</time>
      </trkpt>
      <trkpt lat="43.53172" lon="5.30184">
        <ele>277</ele>
        <time>2017-01-25T12:35:26Z</time>
      </trkpt>
      <trkpt lat="43.53176" lon="5.30174">
        <ele>278</ele>
        <time>2017-01-25T12:35:32Z</time>
      </trkpt>
      <trkpt lat="43.5318" lon="5.30166">
        <ele>279</ele>
        <time>2017-01-25T12:35:38Z</time>
      </trkpt>
      <trkpt lat="43.53183" lon="5.30155">
        <ele>280</ele>
        <time>2017-01-25T12:35:44Z</time>
      </trkpt>
      <trkpt lat="43.53185" lon="5.30145">
        <ele>279</ele>
        <time>2017-01-25T12:35:52Z</time>
      </trkpt>
      <trkpt lat="43.53189" lon="5.30134">
        <ele>279</ele>
        <time>2017-01-25T12:35:59Z</time>
      </trkpt>
      <trkpt lat="43.53194" lon="5.30125">
        <ele>279</ele>
        <time>2017-01-25T12:36:07Z</time>
      </trkpt>
      <trkpt lat="43.53197" lon="5.30115">
        <ele>279</ele>
        <time>2017-01-25T12:36:16Z</time>
      </trkpt>
      <trkpt lat="43.53203" lon="5.30109">
        <ele>279</ele>
        <time>2017-01-25T12:36:23Z</time>
      </trkpt>
      <trkpt lat="43.5321" lon="5.30101">
        <ele>281</ele>
        <time>2017-01-25T12:36:29Z</time>
      </trkpt>
      <trkpt lat="43.53215" lon="5.30093">
        <ele>281</ele>
        <time>2017-01-25T12:36:34Z</time>
      </trkpt>
      <trkpt lat="43.53222" lon="5.3009">
        <ele>282</ele>
        <time>2017-01-25T12:36:39Z</time>
      </trkpt>
      <trkpt lat="43.5323" lon="5.30087">
        <ele>283</ele>
        <time>2017-01-25T12:36:44Z</time>
      </trkpt>
      <trkpt lat="43.53238" lon="5.30081">
        <ele>284</ele>
        <time>2017-01-25T12:36:53Z</time>
      </trkpt>
      <trkpt lat="43.53245" lon="5.30077">
        <ele>282</ele>
        <time>2017-01-25T12:37:02Z</time>
      </trkpt>
      <trkpt lat="43.53253" lon="5.30074">
        <ele>284</ele>
        <time>2017-01-25T12:37:08Z</time>
      </trkpt>
      <trkpt lat="43.53261" lon="5.3007">
        <ele>283</ele>
        <time>2017-01-25T12:37:16Z</time>
      </trkpt>
      <trkpt lat="43.53269" lon="5.30065">
        <ele>287</ele>
        <time>2017-01-25T12:37:26Z</time>
      </trkpt>
      <trkpt lat="43.53277" lon="5.30061">
        <ele>288</ele>
        <time>2017-01-25T12:37:35Z</time>
      </trkpt>
      <trkpt lat="43.53285" lon="5.30058">
        <ele>290</ele>
        <time>2017-01-25T12:37:43Z</time>
      </trkpt>
      <trkpt lat="43.53293" lon="5.30055">
        <ele>292</ele>
        <time>2017-01-25T12:37:50Z</time>
      </trkpt>
      <trkpt lat="43.533" lon="5.3005">
        <ele>292</ele>
        <time>2017-01-25T12:37:58Z</time>
      </trkpt>
      <trkpt lat="43.53308" lon="5.30043">
        <ele>292</ele>
        <time>2017-01-25T12:38:07Z</time>
      </trkpt>
      <trkpt lat="43.53314" lon="5.30036">
        <ele>293</ele>
        <time>2017-01-25T12:38:15Z</time>
      </trkpt>
      <trkpt lat="43.53321" lon="5.3003">
        <ele>293</ele>
        <time>2017-01-25T12:38:22Z</time>
      </trkpt>
      <trkpt lat="43.53329" lon="5.30025">
        <ele>294</ele>
        <time>2017-01-25T12:38:27Z</time>
      </trkpt>
      <trkpt lat="43.53336" lon="5.30017">
        <ele>293</ele>
        <time>2017-01-25T12:38:35Z</time>
      </trkpt>
      <trkpt lat="43.53344" lon="5.30011">
        <ele>294</ele>
        <time>2017-01-25T12:38:42Z</time>
      </trkpt>
      <trkpt lat="43.53352" lon="5.30005">
        <ele>291</ele>
        <time>2017-01-25T12:38:52Z</time>
      </trkpt>
      <trkpt lat="43.53358" lon="5.29997">
        <ele>290</ele>
        <time>2017-01-25T12:38:59Z</time>
      </trkpt>
      <trkpt lat="43.53365" lon="5.2999">
        <ele>291</ele>
        <time>2017-01-25T12:39:07Z</time>
      </trkpt>
      <trkpt lat="43.53371" lon="5.29982">
        <ele>290</ele>
        <time>2017-01-25T12:39:14Z</time>
      </trkpt>
      <trkpt lat="43.53378" lon="5.29976">
        <ele>292</ele>
        <time>2017-01-25T12:39:18Z</time>
      </trkpt>
      <trkpt lat="43.53384" lon="5.2997">
        <ele>292</ele>
        <time>2017-01-25T12:39:24Z</time>
      </trkpt>
      <trkpt lat="43.53392" lon="5.29964">
        <ele>293</ele>
        <time>2017-01-25T12:39:32Z</time>
      </trkpt>
      <trkpt lat="43.53399" lon="5.29958">
        <ele>293</ele>
        <time>2017-01-25T12:39:38Z</time>
      </trkpt>
      <trkpt lat="43.53406" lon="5.29953">
        <ele>292</ele>
        <time>2017-01-25T12:39:44Z</time>
      </trkpt>
      <trkpt lat="43.53413" lon="5.29947">
        <ele>293</ele>
        <time>2017-01-25T12:39:50Z</time>
      </trkpt>
      <trkpt lat="43.5342" lon="5.2994">
        <ele>292</ele>
        <time>2017-01-25T12:39:58Z</time>
      </trkpt>
      <trkpt lat="43.53427" lon="5.29935">
        <ele>293</ele>
        <time>2017-01-25T12:40:05Z</time>
      </trkpt>
      <trkpt lat="43.53434" lon="5.29928">
        <ele>293</ele>
        <time>2017-01-25T12:40:13Z</time>
      </trkpt>
      <trkpt lat="43.5344" lon="5.29918">
        <ele>295</ele>
        <time>2017-01-25T12:40:19Z</time>
      </trkpt>
      <trkpt lat="43.53443" lon="5.29908">
        <ele>294</ele>
        <time>2017-01-25T12:40:27Z</time>
      </trkpt>
      <trkpt lat="43.53445" lon="5.29896">
        <ele>294</ele>
        <time>2017-01-25T12:40:39Z</time>
      </trkpt>
      <trkpt lat="43.53447" lon="5.29892">
        <ele>297</ele>
        <time>2017-01-25T12:42:39Z</time>
      </trkpt>
      <trkpt lat="43.53447" lon="5.29892">
        <ele>297</ele>
        <time>2017-01-25T12:42:40Z</time>
      </trkpt>
    </trkseg>
  </trk>
</gpx>